Observation data for Stamford on 06/14/2019      Previous  Date  Next       Current Mesonet Observations  Soil Data  Daily Summary Page  Observations in Plain Language
KST2 140500Z 14008KT 23/13 A3001 RMK A01 T02300132  RH  054%=      5-min Rain = 0
KST2 140501Z 14008KT 23/13 A3001 RMK A01 T02300132  RH  054%=      5-min Rain = 0
KST2 140502Z 15009KT 23/13 A3001 RMK A01 T02300132  RH  054%=      5-min Rain = 0
KST2 140503Z 15010KT 23/13 A3001 RMK A01 T02300132  RH  054%=      5-min Rain = 0
KST2 140504Z 15008KT 23/13 A3001 RMK A01 T02300132  RH  054%=      5-min Rain = 0
KST2 140505Z 14009KT 23/13 A3001 RMK A01 T02300132  RH  054%=      5-min Rain = 0
KST2 140506Z 15008KT 23/13 A3001 RMK A01 T02300132  RH  054%=      5-min Rain = 0
KST2 140507Z 14009KT 23/13 A3001 RMK A01 T02300132  RH  054%=      5-min Rain = 0
KST2 140508Z 14009KT 23/13 A3001 RMK A01 T02300132  RH  054%=      5-min Rain = 0
KST2 140509Z 14009KT 23/13 A3001 RMK A01 T02300132  RH  054%=      5-min Rain = 0
KST2 140510Z 14009KT 23/13 A3001 RMK A01 T02300132  RH  054%=      5-min Rain = 0
KST2 140511Z 15008KT 23/13 A3001 RMK A01 T02300132  RH  054%=      5-min Rain = 0
KST2 140512Z 15010KT 23/13 A3001 RMK A01 T02300132  RH  054%=      5-min Rain = 0
KST2 140513Z 15011KT 23/13 A3001 RMK A01 T02300132  RH  054%=      5-min Rain = 0
KST2 140514Z 15010KT 23/13 A3001 RMK A01 T02300132  RH  054%=      5-min Rain = 0
KST2 140515Z 15010KT 23/13 A3001 RMK A01 T02310132  RH  054%=      5-min Rain = 0
KST2 140516Z 15010KT 23/13 A3001 RMK A01 T02310132  RH  054%=      5-min Rain = 0
KST2 140517Z 14011KT 23/13 A3001 RMK A01 T02310132  RH  054%=      5-min Rain = 0
KST2 140518Z 15011KT 23/13 A3001 RMK A01 T02310132  RH  054%=      5-min Rain = 0
KST2 140519Z 15010KT 23/13 A3001 RMK A01 T02310132  RH  054%=      5-min Rain = 0
KST2 140520Z 15009KT 23/13 A3001 RMK A01 T02310132  RH  054%=      5-min Rain = 0
KST2 140521Z 15010KT 23/13 A3001 RMK A01 T02310132  RH  054%=      5-min Rain = 0
KST2 140522Z 15009KT 23/13 A3001 RMK A01 T02310132  RH  054%=      5-min Rain = 0
KST2 140523Z 15010KT 23/13 A3001 RMK A01 T02310132  RH  054%=      5-min Rain = 0
KST2 140524Z 15011KT 23/13 A3001 RMK A01 T02310132  RH  054%=      5-min Rain = 0
KST2 140525Z 15010KT 23/13 A3001 RMK A01 T02310132  RH  054%=      5-min Rain = 0
KST2 140526Z 15010KT 23/13 A3001 RMK A01 T02310132  RH  054%=      5-min Rain = 0
KST2 140527Z 15011KT 23/13 A3001 RMK A01 T02310132  RH  054%=      5-min Rain = 0
KST2 140528Z 15010KT 23/13 A3001 RMK A01 T02310132  RH  054%=      5-min Rain = 0
KST2 140529Z 15009KT 23/13 A3001 RMK A01 T02310132  RH  054%=      5-min Rain = 0
KST2 140530Z 15010KT 23/13 A3001 RMK A01 T02310132  RH  054%=      5-min Rain = 0
KST2 140531Z 15010KT 23/13 A3001 RMK A01 T02310132  RH  054%=      5-min Rain = 0
KST2 140532Z 15009KT 23/13 A3002 RMK A01 T02300131  RH  054%=      5-min Rain = 0
KST2 140533Z 15009KT 23/13 A3002 RMK A01 T02300132  RH  054%=      5-min Rain = 0
KST2 140534Z 15011KT 23/13 A3002 RMK A01 T02300132  RH  054%=      5-min Rain = 0
KST2 140535Z 15010KT 23/13 A3002 RMK A01 T02300132  RH  054%=      5-min Rain = 0
KST2 140536Z 15010KT 23/13 A3002 RMK A01 T02300131  RH  054%=      5-min Rain = 0
KST2 140537Z 15010KT 23/13 A3002 RMK A01 T02300131  RH  054%=      5-min Rain = 0
KST2 140538Z 15010KT 23/13 A3002 RMK A01 T02300132  RH  054%=      5-min Rain = 0
KST2 140539Z 15010KT 23/13 A3002 RMK A01 T02300132  RH  054%=      5-min Rain = 0
KST2 140540Z 15009KT 23/13 A3002 RMK A01 T02300132  RH  054%=      5-min Rain = 0
KST2 140541Z 15009KT 23/13 A3002 RMK A01 T02290131  RH  054%=      5-min Rain = 0
KST2 140542Z 15009KT 23/13 A3002 RMK A01 T02290132  RH  054%=      5-min Rain = 0
KST2 140543Z 15009KT 23/13 A3002 RMK A01 T02290131  RH  054%=      5-min Rain = 0
KST2 140544Z 15008KT 23/13 A3002 RMK A01 T02290131  RH  054%=      5-min Rain = 0
KST2 140545Z 15009KT 23/13 A3002 RMK A01 T02290132  RH  054%=      5-min Rain = 0
KST2 140546Z 15008KT 23/13 A3002 RMK A01 T02280131  RH  054%=      5-min Rain = 0
KST2 140547Z 15008KT 23/13 A3002 RMK A01 T02280131  RH  054%=      5-min Rain = 0
KST2 140548Z 14008KT 23/13 A3002 RMK A01 T02280131  RH  054%=      5-min Rain = 0
KST2 140549Z 14008KT 23/13 A3002 RMK A01 T02270131  RH  054%=      5-min Rain = 0
KST2 140550Z 15008KT 23/13 A3002 RMK A01 T02270131  RH  055%=      5-min Rain = 0
KST2 140551Z 14008KT 23/13 A3002 RMK A01 T02270131  RH  055%=      5-min Rain = 0
KST2 140552Z 14008KT 23/13 A3002 RMK A01 T02270131  RH  055%=      5-min Rain = 0
KST2 140553Z 14008KT 23/13 A3002 RMK A01 T02260131  RH  055%=      5-min Rain = 0
KST2 140554Z 14009KT 23/13 A3002 RMK A01 T02260131  RH  055%=      5-min Rain = 0
KST2 140555Z 14008KT 23/13 A3002 RMK A01 T02260131  RH  055%=      5-min Rain = 0
KST2 140556Z 14009KT 23/13 A3002 RMK A01 T02260131  RH  055%=      5-min Rain = 0
KST2 140557Z 15008KT 23/13 A3002 RMK A01 T02250131  RH  055%=      5-min Rain = 0
KST2 140558Z 14008KT 23/13 A3002 RMK A01 T02250131  RH  055%=      5-min Rain = 0
KST2 140559Z 15008KT 23/13 A3002 RMK A01 T02250131  RH  055%=      5-min Rain = 0
KST2 140600Z 15008KT 23/13 A3002 RMK A01 T02250131  RH  056%=      5-min Rain = 0
KST2 140601Z 15008KT 22/13 A3002 RMK A01 T02240131  RH  056%=      5-min Rain = 0
KST2 140602Z 15008KT 22/13 A3002 RMK A01 T02240131  RH  056%=      5-min Rain = 0
KST2 140603Z 15008KT 22/13 A3002 RMK A01 T02240131  RH  056%=      5-min Rain = 0
KST2 140604Z 15008KT 22/13 A3002 RMK A01 T02230131  RH  056%=      5-min Rain = 0
KST2 140605Z 14007KT 22/13 A3002 RMK A01 T02230132  RH  056%=      5-min Rain = 0
KST2 140606Z 14008KT 22/13 A3002 RMK A01 T02230132  RH  056%=      5-min Rain = 0
KST2 140607Z 15008KT 22/13 A3002 RMK A01 T02230131  RH  056%=      5-min Rain = 0
KST2 140608Z 15007KT 22/13 A3002 RMK A01 T02230131  RH  056%=      5-min Rain = 0
KST2 140609Z 15007KT 22/13 A3002 RMK A01 T02220131  RH  056%=      5-min Rain = 0
KST2 140610Z 14008KT 22/13 A3002 RMK A01 T02220132  RH  056%=      5-min Rain = 0
KST2 140611Z 14008KT 22/13 A3002 RMK A01 T02220131  RH  056%=      5-min Rain = 0
KST2 140612Z 14008KT 22/13 A3002 RMK A01 T02220132  RH  057%=      5-min Rain = 0
KST2 140613Z 14008KT 22/13 A3002 RMK A01 T02220132  RH  057%=      5-min Rain = 0
KST2 140614Z 14008KT 22/13 A3002 RMK A01 T02210131  RH  057%=      5-min Rain = 0
KST2 140615Z 14009KT 22/13 A3002 RMK A01 T02220132  RH  057%=      5-min Rain = 0
KST2 140616Z 14008KT 22/13 A3002 RMK A01 T02210132  RH  057%=      5-min Rain = 0
KST2 140617Z 14009KT 22/13 A3002 RMK A01 T02210132  RH  057%=      5-min Rain = 0
KST2 140618Z 14008KT 22/13 A3002 RMK A01 T02210132  RH  057%=      5-min Rain = 0
KST2 140619Z 14008KT 22/13 A3002 RMK A01 T02210132  RH  057%=      5-min Rain = 0
KST2 140620Z 14008KT 22/13 A3002 RMK A01 T02210132  RH  057%=      5-min Rain = 0
KST2 140621Z 14008KT 22/13 A3002 RMK A01 T02200132  RH  057%=      5-min Rain = 0
KST2 140622Z 14007KT 22/13 A3002 RMK A01 T02200132  RH  057%=      5-min Rain = 0
KST2 140623Z 13007KT 22/13 A3002 RMK A01 T02190132  RH  058%=      5-min Rain = 0
KST2 140624Z 13008KT 22/13 A3002 RMK A01 T02190132  RH  058%=      5-min Rain = 0
KST2 140625Z 14008KT 22/13 A3002 RMK A01 T02190132  RH  058%=      5-min Rain = 0
KST2 140626Z 14008KT 22/13 A3002 RMK A01 T02190132  RH  058%=      5-min Rain = 0
KST2 140627Z 13007KT 22/13 A3002 RMK A01 T02190132  RH  058%=      5-min Rain = 0
KST2 140628Z 14008KT 22/13 A3002 RMK A01 T02180132  RH  058%=      5-min Rain = 0
KST2 140629Z 14007KT 22/13 A3002 RMK A01 T02180132  RH  058%=      5-min Rain = 0
KST2 140630Z 14008KT 22/13 A3002 RMK A01 T02180132  RH  058%=      5-min Rain = 0
KST2 140631Z 13008KT 22/13 A3002 RMK A01 T02180132  RH  058%=      5-min Rain = 0
KST2 140632Z 13008KT 22/13 A3001 RMK A01 T02190132  RH  058%=      5-min Rain = 0
KST2 140633Z 13008KT 22/13 A3001 RMK A01 T02190132  RH  058%=      5-min Rain = 0
KST2 140634Z 14008KT 22/13 A3001 RMK A01 T02190132  RH  058%=      5-min Rain = 0
KST2 140635Z 14009KT 22/13 A3001 RMK A01 T02190132  RH  058%=      5-min Rain = 0
KST2 140636Z 13008KT 22/13 A3001 RMK A01 T02190132  RH  058%=      5-min Rain = 0
KST2 140637Z 14010KT 22/13 A3001 RMK A01 T02190132  RH  058%=      5-min Rain = 0
KST2 140638Z 14009KT 22/13 A3001 RMK A01 T02190132  RH  058%=      5-min Rain = 0
KST2 140639Z 14009KT 22/13 A3001 RMK A01 T02180132  RH  058%=      5-min Rain = 0
KST2 140640Z 14010KT 22/13 A3001 RMK A01 T02180132  RH  058%=      5-min Rain = 0
KST2 140641Z 14010KT 22/13 A3001 RMK A01 T02180132  RH  058%=      5-min Rain = 0
KST2 140642Z 14010KT 22/13 A3001 RMK A01 T02180132  RH  058%=      5-min Rain = 0
KST2 140643Z 14009KT 22/13 A30 RMK A01 T02180132  RH  058%=      5-min Rain = 0
KST2 140644Z 14009KT 22/13 A30 RMK A01 T02180133  RH  058%=      5-min Rain = 0
KST2 140645Z 14009KT 22/13 A30 RMK A01 T02180133  RH  058%=      5-min Rain = 0
KST2 140646Z 14010KT 22/13 A30 RMK A01 T02180133  RH  058%=      5-min Rain = 0
KST2 140647Z 14010KT 22/13 A30 RMK A01 T02180132  RH  058%=      5-min Rain = 0
KST2 140648Z 14010KT 22/13 A3001 RMK A01 T02180133  RH  058%=      5-min Rain = 0
KST2 140649Z 14010KT 22/13 A3001 RMK A01 T02170133  RH  059%=      5-min Rain = 0
KST2 140650Z 14009KT 22/13 A3001 RMK A01 T02170133  RH  059%=      5-min Rain = 0
KST2 140651Z 14009KT 22/13 A3001 RMK A01 T02170133  RH  059%=      5-min Rain = 0
KST2 140652Z 14010KT 22/13 A3001 RMK A01 T02170133  RH  059%=      5-min Rain = 0
KST2 140653Z 14010KT 22/13 A3001 RMK A01 T02170133  RH  059%=      5-min Rain = 0
KST2 140654Z 14009KT 22/13 A3001 RMK A01 T02170133  RH  059%=      5-min Rain = 0
KST2 140655Z 14009KT 22/13 A3001 RMK A01 T02170134  RH  059%=      5-min Rain = 0
KST2 140656Z 14009KT 22/13 A30 RMK A01 T02170133  RH  059%=      5-min Rain = 0
KST2 140657Z 14009KT 22/13 A30 RMK A01 T02160133  RH  059%=      5-min Rain = 0
KST2 140658Z 14008KT 22/13 A30 RMK A01 T02170134  RH  059%=      5-min Rain = 0
KST2 140659Z 14009KT 22/13 A30 RMK A01 T02160133  RH  059%=      5-min Rain = 0
KST2 140700Z 14009KT 22/13 A30 RMK A01 T02160133  RH  059%=      5-min Rain = 0
KST2 140701Z 14008KT 22/13 A30 RMK A01 T02160134  RH  059%=      5-min Rain = 0
KST2 140702Z 14009KT 22/13 A30 RMK A01 T02150133  RH  060%=      5-min Rain = 0
KST2 140703Z 14009KT 22/13 A30 RMK A01 T02150134  RH  060%=      5-min Rain = 0
KST2 140704Z 14009KT 22/13 A30 RMK A01 T02160134  RH  060%=      5-min Rain = 0
KST2 140705Z 14008KT 22/13 A30 RMK A01 T02150134  RH  060%=      5-min Rain = 0
KST2 140706Z 14010KT 22/13 A30 RMK A01 T02150134  RH  060%=      5-min Rain = 0
KST2 140707Z 14009KT 22/13 A30 RMK A01 T02150134  RH  060%=      5-min Rain = 0
KST2 140708Z 14009KT 21/13 A30 RMK A01 T02140133  RH  060%=      5-min Rain = 0
KST2 140709Z 14009KT 21/13 A2999 RMK A01 T02140133  RH  060%=      5-min Rain = 0
KST2 140710Z 14010KT 22/13 A2999 RMK A01 T02150133  RH  060%=      5-min Rain = 0
KST2 140711Z 14009KT 22/13 A2999 RMK A01 T02150133  RH  060%=      5-min Rain = 0
KST2 140712Z 14010KT 21/13 A2999 RMK A01 T02140133  RH  060%=      5-min Rain = 0
KST2 140713Z 14009KT 21/13 A2999 RMK A01 T02140133  RH  060%=      5-min Rain = 0
KST2 140714Z 14010KT 21/13 A2999 RMK A01 T02140133  RH  060%=      5-min Rain = 0
KST2 140715Z 14009KT 21/13 A2999 RMK A01 T02140133  RH  060%=      5-min Rain = 0
KST2 140716Z 14009KT 21/13 A2999 RMK A01 T02140134  RH  060%=      5-min Rain = 0
KST2 140717Z 14009KT 21/13 A2999 RMK A01 T02140134  RH  060%=      5-min Rain = 0
KST2 140718Z 15009KT 21/13 A2999 RMK A01 T02140134  RH  060%=      5-min Rain = 0
KST2 140719Z 15010KT 21/13 A2999 RMK A01 T02140134  RH  060%=      5-min Rain = 0
KST2 140720Z 14010KT 21/14 A2999 RMK A01 T02140135  RH  060%=      5-min Rain = 0
KST2 140721Z 15009KT 22/14 A2999 RMK A01 T02150135  RH  060%=      5-min Rain = 0
KST2 140722Z 15008KT 22/14 A2999 RMK A01 T02150135  RH  060%=      5-min Rain = 0
KST2 140723Z 15010KT 22/14 A2999 RMK A01 T02160136  RH  060%=      5-min Rain = 0
KST2 140724Z 15009KT 22/14 A2999 RMK A01 T02160136  RH  060%=      5-min Rain = 0
KST2 140725Z 15009KT 22/14 A2999 RMK A01 T02160136  RH  060%=      5-min Rain = 0
KST2 140726Z 15008KT 22/14 A2999 RMK A01 T02160136  RH  060%=      5-min Rain = 0
KST2 140727Z 15007KT 22/14 A30 RMK A01 T02170137  RH  060%=      5-min Rain = 0
KST2 140728Z 15008KT 22/14 A30 RMK A01 T02170137  RH  060%=      5-min Rain = 0
KST2 140729Z 15008KT 22/14 A30 RMK A01 T02170137  RH  060%=      5-min Rain = 0
KST2 140730Z 15007KT 22/14 A30 RMK A01 T02170137  RH  060%=      5-min Rain = 0
KST2 140731Z 15008KT 22/14 A30 RMK A01 T02170137  RH  060%=      5-min Rain = 0
KST2 140732Z 15007KT 22/14 A30 RMK A01 T02170137  RH  060%=      5-min Rain = 0
KST2 140733Z 15008KT 22/14 A30 RMK A01 T02170137  RH  060%=      5-min Rain = 0
KST2 140734Z 15009KT 22/14 A30 RMK A01 T02170137  RH  060%=      5-min Rain = 0
KST2 140735Z 15008KT 22/14 A30 RMK A01 T02170138  RH  061%=      5-min Rain = 0
KST2 140736Z 15009KT 22/14 A30 RMK A01 T02180138  RH  061%=      5-min Rain = 0
KST2 140737Z 15008KT 22/14 A30 RMK A01 T02180138  RH  061%=      5-min Rain = 0
KST2 140738Z 15007KT 22/14 A30 RMK A01 T02180138  RH  061%=      5-min Rain = 0
KST2 140739Z 15007KT 22/14 A30 RMK A01 T02180138  RH  061%=      5-min Rain = 0
KST2 140740Z 15007KT 22/14 A30 RMK A01 T02180138  RH  061%=      5-min Rain = 0
KST2 140741Z 15006KT 22/14 A30 RMK A01 T02180139  RH  061%=      5-min Rain = 0
KST2 140742Z 15007KT 22/14 A30 RMK A01 T02180139  RH  061%=      5-min Rain = 0
KST2 140743Z 15007KT 22/14 A30 RMK A01 T02180139  RH  061%=      5-min Rain = 0
KST2 140744Z 15007KT 22/14 A30 RMK A01 T02180139  RH  061%=      5-min Rain = 0
KST2 140745Z 15007KT 22/14 A30 RMK A01 T02180139  RH  061%=      5-min Rain = 0
KST2 140746Z 15008KT 22/14 A30 RMK A01 T02180139  RH  061%=      5-min Rain = 0
KST2 140747Z 15007KT 22/14 A30 RMK A01 T02180139  RH  061%=      5-min Rain = 0
KST2 140748Z 15009KT 22/14 A30 RMK A01 T02180139  RH  061%=      5-min Rain = 0
KST2 140749Z 15008KT 22/14 A30 RMK A01 T02180140  RH  061%=      5-min Rain = 0
KST2 140750Z 15009KT 22/14 A30 RMK A01 T02190140  RH  061%=      5-min Rain = 0
KST2 140751Z 16010KT 22/14 A30 RMK A01 T02190141  RH  061%=      5-min Rain = 0
KST2 140752Z 15010KT 22/14 A30 RMK A01 T02200141  RH  061%=      5-min Rain = 0
KST2 140753Z 15011KT 22/14 A30 RMK A01 T02210142  RH  061%=      5-min Rain = 0
KST2 140754Z 15010KT 22/14 A2999 RMK A01 T02210142  RH  061%=      5-min Rain = 0
KST2 140755Z 15009KT 22/14 A2999 RMK A01 T02220142  RH  061%=      5-min Rain = 0
KST2 140756Z 15009KT 22/14 A2999 RMK A01 T02220142  RH  061%=      5-min Rain = 0
KST2 140757Z 15008KT 22/14 A30 RMK A01 T02220143  RH  061%=      5-min Rain = 0
KST2 140758Z 15008KT 22/14 A30 RMK A01 T02220143  RH  061%=      5-min Rain = 0
KST2 140759Z 16010KT 22/14 A30 RMK A01 T02220143  RH  061%=      5-min Rain = 0
KST2 140800Z 15010KT 22/14 A30 RMK A01 T02230143  RH  061%=      5-min Rain = 0
KST2 140801Z 15010KT 22/14 A30 RMK A01 T02230143  RH  060%=      5-min Rain = 0
KST2 140802Z 16009KT 22/14 A30 RMK A01 T02240143  RH  060%=      5-min Rain = 0
KST2 140803Z 16011KT 22/14 A30 RMK A01 T02240144  RH  060%=      5-min Rain = 0
KST2 140804Z 15009KT 22/14 A30 RMK A01 T02240143  RH  060%=      5-min Rain = 0
KST2 140805Z 15009KT 22/14 A2999 RMK A01 T02240144  RH  060%=      5-min Rain = 0
KST2 140806Z 15010KT 22/14 A2999 RMK A01 T02240143  RH  060%=      5-min Rain = 0
KST2 140807Z 15009KT 22/14 A2999 RMK A01 T02240144  RH  060%=      5-min Rain = 0
KST2 140808Z 15010KT 22/14 A2999 RMK A01 T02240143  RH  060%=      5-min Rain = 0
KST2 140809Z 15008KT 22/14 A30 RMK A01 T02240143  RH  060%=      5-min Rain = 0
KST2 140810Z 15009KT 22/14 A30 RMK A01 T02240143  RH  060%=      5-min Rain = 0
KST2 140811Z 15009KT 22/14 A30 RMK A01 T02240144  RH  060%=      5-min Rain = 0
KST2 140812Z 15011KT 22/14 A2999 RMK A01 T02240144  RH  060%=      5-min Rain = 0
KST2 140813Z 15010KT 22/14 A2999 RMK A01 T02240144  RH  060%=      5-min Rain = 0
KST2 140814Z 15009KT 22/14 A30 RMK A01 T02240144  RH  060%=      5-min Rain = 0
KST2 140815Z 15010KT 22/14 A2999 RMK A01 T02240144  RH  060%=      5-min Rain = 0
KST2 140816Z 15010KT 22/14 A2999 RMK A01 T02240144  RH  060%=      5-min Rain = 0
KST2 140817Z 15012KT 22/14 A2999 RMK A01 T02240143  RH  060%=      5-min Rain = 0
KST2 140818Z 16011KT 22/14 A2999 RMK A01 T02240144  RH  060%=      5-min Rain = 0
KST2 140819Z 15013KT 22/14 A2999 RMK A01 T02240144  RH  060%=      5-min Rain = 0
KST2 140820Z 15012KT 22/14 A2999 RMK A01 T02240144  RH  060%=      5-min Rain = 0
KST2 140821Z 16012KT 22/14 A2999 RMK A01 T02240144  RH  060%=      5-min Rain = 0
KST2 140822Z 15011KT 23/14 A2999 RMK A01 T02250144  RH  060%=      5-min Rain = 0
KST2 140823Z 16012KT 23/14 A2999 RMK A01 T02250144  RH  060%=      5-min Rain = 0
KST2 140824Z 16010KT 23/15 A2999 RMK A01 T02250145  RH  060%=      5-min Rain = 0
KST2 140825Z 16011KT 23/14 A2999 RMK A01 T02250144  RH  060%=      5-min Rain = 0
KST2 140826Z 16011KT 23/14 A2999 RMK A01 T02250144  RH  060%=      5-min Rain = 0
KST2 140827Z 15012KT 22/14 A2999 RMK A01 T02240144  RH  060%=      5-min Rain = 0
KST2 140828Z 15011KT 23/14 A2999 RMK A01 T02250144  RH  060%=      5-min Rain = 0
KST2 140829Z 15011KT 22/14 A2999 RMK A01 T02240144  RH  060%=      5-min Rain = 0
KST2 140830Z 15010KT 22/14 A2999 RMK A01 T02240144  RH  061%=      5-min Rain = 0
KST2 140831Z 15011KT 22/14 A2999 RMK A01 T02240144  RH  061%=      5-min Rain = 0
KST2 140832Z 15011KT 22/14 A2999 RMK A01 T02230144  RH  061%=      5-min Rain = 0
KST2 140833Z 15009KT 22/14 A2999 RMK A01 T02230144  RH  061%=      5-min Rain = 0
KST2 140834Z 15010KT 22/14 A2999 RMK A01 T02230144  RH  061%=      5-min Rain = 0
KST2 140835Z 16010KT 22/14 A2999 RMK A01 T02230144  RH  061%=      5-min Rain = 0
KST2 140836Z 15011KT 22/14 A2999 RMK A01 T02230144  RH  061%=      5-min Rain = 0
KST2 140837Z 15010KT 22/14 A30 RMK A01 T02230144  RH  061%=      5-min Rain = 0
KST2 140838Z 15010KT 22/14 A30 RMK A01 T02230144  RH  061%=      5-min Rain = 0
KST2 140839Z 15010KT 22/15 A30 RMK A01 T02240145  RH  061%=      5-min Rain = 0
KST2 140840Z 15009KT 22/15 A30 RMK A01 T02230145  RH  061%=      5-min Rain = 0
KST2 140841Z 15009KT 22/15 A30 RMK A01 T02230145  RH  061%=      5-min Rain = 0
KST2 140842Z 15011KT 22/15 A30 RMK A01 T02230145  RH  061%=      5-min Rain = 0
KST2 140843Z 15011KT 22/15 A30 RMK A01 T02230145  RH  061%=      5-min Rain = 0
KST2 140844Z 15009KT 22/15 A30 RMK A01 T02230145  RH  061%=      5-min Rain = 0
KST2 140845Z 15009KT 22/15 A30 RMK A01 T02230145  RH  061%=      5-min Rain = 0
KST2 140846Z 15010KT 22/15 A30 RMK A01 T02230145  RH  061%=      5-min Rain = 0
KST2 140847Z 15009KT 22/15 A30 RMK A01 T02230145  RH  061%=      5-min Rain = 0
KST2 140848Z 15010KT 22/15 A30 RMK A01 T02230145  RH  061%=      5-min Rain = 0
KST2 140849Z 15010KT 22/15 A30 RMK A01 T02230145  RH  061%=      5-min Rain = 0
KST2 140850Z 15009KT 22/15 A2999 RMK A01 T02220145  RH  062%=      5-min Rain = 0
KST2 140851Z 14010KT 22/15 A2999 RMK A01 T02220145  RH  062%=      5-min Rain = 0
KST2 140852Z 15012KT 22/15 A2999 RMK A01 T02220145  RH  062%=      5-min Rain = 0
KST2 140853Z 15011KT 22/15 A2999 RMK A01 T02210145  RH  062%=      5-min Rain = 0
KST2 140854Z 15011KT 22/15 A2999 RMK A01 T02220145  RH  062%=      5-min Rain = 0
KST2 140855Z 15011KT 22/15 A2999 RMK A01 T02210145  RH  062%=      5-min Rain = 0
KST2 140856Z 15010KT 22/15 A2999 RMK A01 T02210145  RH  062%=      5-min Rain = 0
KST2 140857Z 15011KT 22/15 A2999 RMK A01 T02210145  RH  062%=      5-min Rain = 0
KST2 140858Z 15010KT 22/15 A2999 RMK A01 T02210145  RH  062%=      5-min Rain = 0
KST2 140859Z 15010KT 22/15 A2999 RMK A01 T02210145  RH  062%=      5-min Rain = 0
KST2 140900Z 15010KT 22/15 A2999 RMK A01 T02210145  RH  062%=      5-min Rain = 0
KST2 140901Z 15010KT 22/15 A2999 RMK A01 T02210146  RH  062%=      5-min Rain = 0
KST2 140902Z 15010KT 22/15 A2999 RMK A01 T02210146  RH  062%=      5-min Rain = 0
KST2 140903Z 15010KT 22/15 A2999 RMK A01 T02210146  RH  062%=      5-min Rain = 0
KST2 140904Z 15012KT 22/15 A2999 RMK A01 T02210146  RH  062%=      5-min Rain = 0
KST2 140905Z 15011KT 22/15 A2999 RMK A01 T02210146  RH  063%=      5-min Rain = 0
KST2 140906Z 15010KT 22/15 A2999 RMK A01 T02200146  RH  062%=      5-min Rain = 0
KST2 140907Z 15011KT 22/15 A2999 RMK A01 T02210146  RH  063%=      5-min Rain = 0
KST2 140908Z 15011KT 22/15 A2999 RMK A01 T02210146  RH  063%=      5-min Rain = 0
KST2 140909Z 15011KT 22/15 A2999 RMK A01 T02210146  RH  063%=      5-min Rain = 0
KST2 140910Z 15010KT 22/15 A2999 RMK A01 T02210146  RH  063%=      5-min Rain = 0
KST2 140911Z 15010KT 22/15 A2999 RMK A01 T02200146  RH  063%=      5-min Rain = 0
KST2 140912Z 15010KT 22/15 A2999 RMK A01 T02200146  RH  063%=      5-min Rain = 0
KST2 140913Z 15010KT 22/15 A2999 RMK A01 T02190146  RH  063%=      5-min Rain = 0
KST2 140914Z 15010KT 22/15 A2999 RMK A01 T02200147  RH  063%=      5-min Rain = 0
KST2 140915Z 15010KT 22/15 A2999 RMK A01 T02190146  RH  063%=      5-min Rain = 0
KST2 140916Z 15011KT 22/15 A2999 RMK A01 T02190146  RH  063%=      5-min Rain = 0
KST2 140917Z 15010KT 22/15 A2999 RMK A01 T02190146  RH  063%=      5-min Rain = 0
KST2 140918Z 15011KT 22/15 A2999 RMK A01 T02190146  RH  063%=      5-min Rain = 0
KST2 140919Z 15010KT 22/15 A2999 RMK A01 T02190146  RH  063%=      5-min Rain = 0
KST2 140920Z 15010KT 22/15 A2999 RMK A01 T02190146  RH  063%=      5-min Rain = 0
KST2 140921Z 15010KT 22/15 A2999 RMK A01 T02190147  RH  064%=      5-min Rain = 0
KST2 140922Z 15010KT 22/15 A2999 RMK A01 T02190147  RH  064%=      5-min Rain = 0
KST2 140923Z 15010KT 22/15 A2999 RMK A01 T02190147  RH  064%=      5-min Rain = 0
KST2 140924Z 15010KT 22/15 A2999 RMK A01 T02190147  RH  064%=      5-min Rain = 0
KST2 140925Z 15010KT 22/15 A2999 RMK A01 T02190147  RH  064%=      5-min Rain = 0
KST2 140926Z 15009KT 22/15 A2999 RMK A01 T02190148  RH  064%=      5-min Rain = 0
KST2 140927Z 15009KT 22/15 A2999 RMK A01 T02190147  RH  064%=      5-min Rain = 0
KST2 140928Z 15010KT 22/15 A2999 RMK A01 T02180147  RH  064%=      5-min Rain = 0
KST2 140929Z 15010KT 22/15 A2999 RMK A01 T02180147  RH  064%=      5-min Rain = 0
KST2 140930Z 15011KT 22/15 A2998 RMK A01 T02180148  RH  064%=      5-min Rain = 0
KST2 140931Z 15011KT 22/15 A2998 RMK A01 T02180148  RH  064%=      5-min Rain = 0
KST2 140932Z 15009KT 22/15 A2999 RMK A01 T02180148  RH  064%=      5-min Rain = 0
KST2 140933Z 15010KT 22/15 A2999 RMK A01 T02180148  RH  064%=      5-min Rain = 0
KST2 140934Z 15011KT 22/15 A2999 RMK A01 T02180148  RH  064%=      5-min Rain = 0
KST2 140935Z 15011KT 22/15 A2999 RMK A01 T02180148  RH  064%=      5-min Rain = 0
KST2 140936Z 15010KT 22/15 A2999 RMK A01 T02180148  RH  064%=      5-min Rain = 0
KST2 140937Z 15009KT 22/15 A2999 RMK A01 T02180148  RH  064%=      5-min Rain = 0
KST2 140938Z 15010KT 22/15 A2999 RMK A01 T02180149  RH  065%=      5-min Rain = 0
KST2 140939Z 15011KT 22/15 A2999 RMK A01 T02180148  RH  065%=      5-min Rain = 0
KST2 140940Z 15010KT 22/15 A2999 RMK A01 T02180148  RH  065%=      5-min Rain = 0
KST2 140941Z 15009KT 22/15 A2999 RMK A01 T02180148  RH  065%=      5-min Rain = 0
KST2 140942Z 15009KT 22/15 A2999 RMK A01 T02180148  RH  065%=      5-min Rain = 0
KST2 140943Z 15010KT 22/15 A2999 RMK A01 T02180149  RH  065%=      5-min Rain = 0
KST2 140944Z 16010KT 22/15 A2999 RMK A01 T02180149  RH  065%=      5-min Rain = 0
KST2 140945Z 16011KT 22/15 A2999 RMK A01 T02180149  RH  065%=      5-min Rain = 0
KST2 140946Z 15009KT 22/15 A2999 RMK A01 T02180149  RH  065%=      5-min Rain = 0
KST2 140947Z 15010KT 22/15 A2999 RMK A01 T02180149  RH  065%=      5-min Rain = 0
KST2 140948Z 15009KT 22/15 A2999 RMK A01 T02170149  RH  065%=      5-min Rain = 0
KST2 140949Z 15010KT 22/15 A2999 RMK A01 T02170149  RH  065%=      5-min Rain = 0
KST2 140950Z 16009KT 22/15 A2999 RMK A01 T02170149  RH  065%=      5-min Rain = 0
KST2 140951Z 15009KT 22/15 A30 RMK A01 T02170149  RH  065%=      5-min Rain = 0
KST2 140952Z 15010KT 22/15 A30 RMK A01 T02170149  RH  065%=      5-min Rain = 0
KST2 140953Z 15009KT 22/15 A30 RMK A01 T02170149  RH  065%=      5-min Rain = 0
KST2 140954Z 15008KT 22/15 A30 RMK A01 T02170150  RH  065%=      5-min Rain = 0
KST2 140955Z 15008KT 22/15 A30 RMK A01 T02170150  RH  065%=      5-min Rain = 0
KST2 140956Z 15009KT 22/15 A30 RMK A01 T02170149  RH  066%=      5-min Rain = 0
KST2 140957Z 15009KT 22/15 A30 RMK A01 T02160149  RH  066%=      5-min Rain = 0
KST2 140958Z 14008KT 22/15 A30 RMK A01 T02160149  RH  066%=      5-min Rain = 0
KST2 140959Z 14007KT 22/15 A30 RMK A01 T02160149  RH  066%=      5-min Rain = 0
KST2 141000Z 14008KT 22/15 A30 RMK A01 T02160150  RH  066%=      5-min Rain = 0
KST2 141001Z 14009KT 22/15 A30 RMK A01 T02170150  RH  066%=      5-min Rain = 0
KST2 141002Z 14007KT 22/15 A30 RMK A01 T02170150  RH  066%=      5-min Rain = 0
KST2 141003Z 14007KT 22/15 A30 RMK A01 T02160150  RH  066%=      5-min Rain = 0
KST2 141004Z 14008KT 22/15 A30 RMK A01 T02160150  RH  066%=      5-min Rain = 0
KST2 141005Z 14008KT 22/15 A30 RMK A01 T02160150  RH  066%=      5-min Rain = 0
KST2 141006Z 15009KT 22/15 A30 RMK A01 T02160150  RH  066%=      5-min Rain = 0
KST2 141007Z 14007KT 22/15 A30 RMK A01 T02160150  RH  066%=      5-min Rain = 0
KST2 141008Z 14008KT 22/15 A30 RMK A01 T02150150  RH  066%=      5-min Rain = 0
KST2 141009Z 14008KT 22/15 A30 RMK A01 T02150150  RH  066%=      5-min Rain = 0
KST2 141010Z 14008KT 22/15 A30 RMK A01 T02150150  RH  066%=      5-min Rain = 0
KST2 141011Z 15008KT 22/15 A30 RMK A01 T02150150  RH  067%=      5-min Rain = 0
KST2 141012Z 14009KT 22/15 A30 RMK A01 T02150150  RH  067%=      5-min Rain = 0
KST2 141013Z 14008KT 22/15 A30 RMK A01 T02150150  RH  067%=      5-min Rain = 0
KST2 141014Z 14008KT 22/15 A30 RMK A01 T02150150  RH  067%=      5-min Rain = 0
KST2 141015Z 14007KT 22/15 A30 RMK A01 T02150151  RH  067%=      5-min Rain = 0
KST2 141016Z 14008KT 21/15 A30 RMK A01 T02140150  RH  067%=      5-min Rain = 0
KST2 141017Z 14009KT 21/15 A30 RMK A01 T02140151  RH  067%=      5-min Rain = 0
KST2 141018Z 14008KT 21/15 A30 RMK A01 T02140151  RH  067%=      5-min Rain = 0
KST2 141019Z 14007KT 21/15 A30 RMK A01 T02140150  RH  067%=      5-min Rain = 0
KST2 141020Z 14007KT 21/15 A30 RMK A01 T02140151  RH  067%=      5-min Rain = 0
KST2 141021Z 14007KT 21/15 A30 RMK A01 T02140151  RH  067%=      5-min Rain = 0
KST2 141022Z 13007KT 21/15 A30 RMK A01 T02140151  RH  067%=      5-min Rain = 0
KST2 141023Z 13007KT 21/15 A30 RMK A01 T02130151  RH  067%=      5-min Rain = 0
KST2 141024Z 14007KT 21/15 A30 RMK A01 T02130151  RH  067%=      5-min Rain = 0
KST2 141025Z 14007KT 21/15 A3001 RMK A01 T02130151  RH  068%=      5-min Rain = 0
KST2 141026Z 14006KT 21/15 A3001 RMK A01 T02130151  RH  068%=      5-min Rain = 0
KST2 141027Z 14006KT 21/15 A3001 RMK A01 T02130151  RH  068%=      5-min Rain = 0
KST2 141028Z 14005KT 21/15 A3001 RMK A01 T02130151  RH  068%=      5-min Rain = 0
KST2 141029Z 14006KT 21/15 A3001 RMK A01 T02130151  RH  068%=      5-min Rain = 0
KST2 141030Z 14007KT 21/15 A3001 RMK A01 T02140152  RH  068%=      5-min Rain = 0
KST2 141031Z 14006KT 21/15 A3001 RMK A01 T02140152  RH  068%=      5-min Rain = 0
KST2 141032Z 14006KT 21/15 A3001 RMK A01 T02140152  RH  068%=      5-min Rain = 0
KST2 141033Z 15008KT 21/15 A3001 RMK A01 T02140152  RH  068%=      5-min Rain = 0
KST2 141034Z 14006KT 21/15 A3001 RMK A01 T02140152  RH  068%=      5-min Rain = 0
KST2 141035Z 14006KT 21/15 A3001 RMK A01 T02140152  RH  068%=      5-min Rain = 0
KST2 141036Z 14008KT 21/15 A3001 RMK A01 T02140152  RH  068%=      5-min Rain = 0
KST2 141037Z 14007KT 21/15 A3001 RMK A01 T02140152  RH  068%=      5-min Rain = 0
KST2 141038Z 14006KT 21/15 A3001 RMK A01 T02140152  RH  068%=      5-min Rain = 0
KST2 141039Z 14006KT 21/15 A3001 RMK A01 T02140153  RH  068%=      5-min Rain = 0
KST2 141040Z 14006KT 22/15 A3001 RMK A01 T02150153  RH  068%=      5-min Rain = 0
KST2 141041Z 14006KT 21/15 A3001 RMK A01 T02140153  RH  068%=      5-min Rain = 0
KST2 141042Z 14007KT 21/15 A3001 RMK A01 T02140153  RH  068%=      5-min Rain = 0
KST2 141043Z 14006KT 21/15 A3001 RMK A01 T02140153  RH  068%=      5-min Rain = 0
KST2 141044Z 14006KT 21/15 A3001 RMK A01 T02140153  RH  068%=      5-min Rain = 0
KST2 141045Z 15006KT 21/15 A3001 RMK A01 T02140154  RH  068%=      5-min Rain = 0
KST2 141046Z 14006KT 21/15 A3001 RMK A01 T02130153  RH  068%=      5-min Rain = 0
KST2 141047Z 14006KT 21/15 A3001 RMK A01 T02130153  RH  069%=      5-min Rain = 0
KST2 141048Z 13006KT 21/15 A3001 RMK A01 T02130153  RH  069%=      5-min Rain = 0
KST2 141049Z 14006KT 21/15 A3001 RMK A01 T02130153  RH  069%=      5-min Rain = 0
KST2 141050Z 14005KT 21/15 A3001 RMK A01 T02130153  RH  069%=      5-min Rain = 0
KST2 141051Z 14005KT 21/15 A3001 RMK A01 T02130153  RH  069%=      5-min Rain = 0
KST2 141052Z 13005KT 21/15 A3001 RMK A01 T02130153  RH  069%=      5-min Rain = 0
KST2 141053Z 14006KT 21/15 A3001 RMK A01 T02130153  RH  069%=      5-min Rain = 0
KST2 141054Z 14005KT 21/15 A3001 RMK A01 T02130154  RH  069%=      5-min Rain = 0
KST2 141055Z 13005KT 21/15 A3001 RMK A01 T02120153  RH  069%=      5-min Rain = 0
KST2 141056Z 13005KT 21/15 A3001 RMK A01 T02120154  RH  069%=      5-min Rain = 0
KST2 141057Z 14006KT 21/15 A3001 RMK A01 T02120153  RH  069%=      5-min Rain = 0
KST2 141058Z 14005KT 21/15 A3001 RMK A01 T02120153  RH  069%=      5-min Rain = 0
KST2 141059Z 14006KT 21/15 A3001 RMK A01 T02110153  RH  069%=      5-min Rain = 0
KST2 141100Z 13006KT 21/15 A3001 RMK A01 T02110153  RH  069%=      5-min Rain = 0
KST2 141101Z 13005KT 21/15 A3001 RMK A01 T02110153  RH  070%=      5-min Rain = 0
KST2 141102Z 12005KT 21/15 A3001 RMK A01 T02100153  RH  070%=      5-min Rain = 0
KST2 141103Z 13006KT 21/15 A3001 RMK A01 T02100153  RH  070%=      5-min Rain = 0
KST2 141104Z 12006KT 21/15 A3001 RMK A01 T02090152  RH  070%=      5-min Rain = 0
KST2 141105Z 12006KT 21/15 A30 RMK A01 T02080152  RH  070%=      5-min Rain = 0
KST2 141106Z 12006KT 21/15 A30 RMK A01 T02080151  RH  070%=      5-min Rain = 0
KST2 141107Z 13006KT 21/15 A30 RMK A01 T02060150  RH  070%=      5-min Rain = 0
KST2 141108Z 13007KT 21/15 A30 RMK A01 T02050150  RH  070%=      5-min Rain = 0
KST2 141109Z 13007KT 21/15 A30 RMK A01 T02050150  RH  071%=      5-min Rain = 0
KST2 141110Z 13006KT 20/15 A30 RMK A01 T02040150  RH  071%=      5-min Rain = 0
KST2 141111Z 12007KT 20/15 A30 RMK A01 T02040149  RH  071%=      5-min Rain = 0
KST2 141112Z 12006KT 20/15 A30 RMK A01 T02040149  RH  071%=      5-min Rain = 0
KST2 141113Z 12006KT 20/15 A30 RMK A01 T02030149  RH  071%=      5-min Rain = 0
KST2 141114Z 13006KT 20/15 A30 RMK A01 T02030149  RH  071%=      5-min Rain = 0
KST2 141115Z 12007KT 20/15 A30 RMK A01 T02030149  RH  071%=      5-min Rain = 0
KST2 141116Z 12006KT 20/15 A30 RMK A01 T02020148  RH  071%=      5-min Rain = 0
KST2 141117Z 13007KT 20/15 A30 RMK A01 T02010148  RH  071%=      5-min Rain = 0
KST2 141118Z 13007KT 20/15 A30 RMK A01 T02010148  RH  072%=      5-min Rain = 0
KST2 141119Z 13006KT 20/15 A30 RMK A01 T02010148  RH  072%=      5-min Rain = 0
KST2 141120Z 12007KT 20/15 A30 RMK A01 T02010148  RH  072%=      5-min Rain = 0
KST2 141121Z 12007KT 20/15 A30 RMK A01 T02000148  RH  072%=      5-min Rain = 0
KST2 141122Z 12006KT 20/15 A30 RMK A01 T01990148  RH  072%=      5-min Rain = 0
KST2 141123Z 12007KT 20/15 A30 RMK A01 T01990147  RH  072%=      5-min Rain = 0
KST2 141124Z 12007KT 20/15 A30 RMK A01 T01990147  RH  072%=      5-min Rain = 0
KST2 141125Z 12006KT 20/15 A30 RMK A01 T01980147  RH  072%=      5-min Rain = 0
KST2 141126Z 12007KT 20/15 A30 RMK A01 T01980147  RH  073%=      5-min Rain = 0
KST2 141127Z 12006KT 20/15 A30 RMK A01 T01970147  RH  073%=      5-min Rain = 0
KST2 141128Z 12007KT 20/15 A30 RMK A01 T01980148  RH  073%=      5-min Rain = 0
KST2 141129Z 12007KT 20/15 A30 RMK A01 T01970147  RH  073%=      5-min Rain = 0
KST2 141130Z 12007KT 20/15 A30 RMK A01 T01980148  RH  073%=      5-min Rain = 0
KST2 141131Z 11006KT 20/15 A30 RMK A01 T01980148  RH  073%=      5-min Rain = 0
KST2 141132Z 12006KT 20/15 A30 RMK A01 T01970148  RH  073%=      5-min Rain = 0
KST2 141133Z 11006KT 20/15 A30 RMK A01 T01970148  RH  073%=      5-min Rain = 0
KST2 141134Z 11006KT 20/15 A30 RMK A01 T01970148  RH  073%=      5-min Rain = 0
KST2 141135Z 11006KT 20/15 A30 RMK A01 T01970148  RH  073%=      5-min Rain = 0
KST2 141136Z 11006KT 20/15 A30 RMK A01 T01970148  RH  073%=      5-min Rain = 0
KST2 141137Z 11006KT 20/15 A30 RMK A01 T01960148  RH  073%=      5-min Rain = 0
KST2 141138Z 11006KT 20/15 A30 RMK A01 T01970148  RH  073%=      5-min Rain = 0
KST2 141139Z 11006KT 20/15 A30 RMK A01 T01970148  RH  073%=      5-min Rain = 0
KST2 141140Z 11006KT 20/15 A30 RMK A01 T01970148  RH  074%=      5-min Rain = 0
KST2 141141Z 11006KT 20/15 A30 RMK A01 T01970148  RH  074%=      5-min Rain = 0
KST2 141142Z 11006KT 20/15 A30 RMK A01 T01970149  RH  074%=      5-min Rain = 0
KST2 141143Z 12007KT 20/15 A30 RMK A01 T01960148  RH  074%=      5-min Rain = 0
KST2 141144Z 12006KT 20/15 A30 RMK A01 T01960148  RH  074%=      5-min Rain = 0
KST2 141145Z 12006KT 20/15 A30 RMK A01 T01960148  RH  074%=      5-min Rain = 0
KST2 141146Z 12007KT 20/15 A30 RMK A01 T01960148  RH  074%=      5-min Rain = 0
KST2 141147Z 12007KT 20/15 A2999 RMK A01 T01960149  RH  074%=      5-min Rain = 0
KST2 141148Z 12007KT 20/15 A2999 RMK A01 T01960148  RH  074%=      5-min Rain = 0
KST2 141149Z 12006KT 20/15 A2999 RMK A01 T01960149  RH  074%=      5-min Rain = 0
KST2 141150Z 12006KT 20/15 A2999 RMK A01 T01960149  RH  074%=      5-min Rain = 0
KST2 141151Z 12006KT 20/15 A30 RMK A01 T01960149  RH  074%=      5-min Rain = 0
KST2 141152Z 12006KT 20/15 A30 RMK A01 T01960150  RH  074%=      5-min Rain = 0
KST2 141153Z 12005KT 20/15 A30 RMK A01 T01960149  RH  075%=      5-min Rain = 0
KST2 141154Z 12005KT 20/15 A30 RMK A01 T01960149  RH  075%=      5-min Rain = 0
KST2 141155Z 12006KT 20/15 A30 RMK A01 T01960150  RH  075%=      5-min Rain = 0
KST2 141156Z 12005KT 20/15 A30 RMK A01 T01960150  RH  075%=      5-min Rain = 0
KST2 141157Z 12006KT 20/15 A30 RMK A01 T01960150  RH  075%=      5-min Rain = 0
KST2 141158Z 12006KT 20/15 A30 RMK A01 T01960150  RH  075%=      5-min Rain = 0
KST2 141159Z 12006KT 20/15 A30 RMK A01 T01960150  RH  075%=      5-min Rain = 0
KST2 141200Z 12006KT 20/15 A30 RMK A01 T01960150  RH  075%=      5-min Rain = 0
KST2 141201Z 12006KT 20/15 A30 RMK A01 T01960150  RH  075%=      5-min Rain = 0
KST2 141202Z 12006KT 20/15 A30 RMK A01 T01970151  RH  075%=      5-min Rain = 0
KST2 141203Z 12006KT 20/15 A30 RMK A01 T01960151  RH  075%=      5-min Rain = 0
KST2 141204Z 12006KT 20/15 A30 RMK A01 T01970151  RH  075%=      5-min Rain = 0
KST2 141205Z 12007KT 20/15 A2999 RMK A01 T01970151  RH  075%=      5-min Rain = 0
KST2 141206Z 12007KT 20/15 A2999 RMK A01 T01970151  RH  075%=      5-min Rain = 0
KST2 141207Z 12006KT 20/15 A2999 RMK A01 T01970151  RH  075%=      5-min Rain = 0
KST2 141208Z 12007KT 20/15 A2999 RMK A01 T01970152  RH  075%=      5-min Rain = 0
KST2 141209Z 12006KT 20/15 A30 RMK A01 T01970151  RH  075%=      5-min Rain = 0
KST2 141210Z 12006KT 20/15 A30 RMK A01 T01970152  RH  075%=      5-min Rain = 0
KST2 141211Z 12005KT 20/15 A30 RMK A01 T01970152  RH  075%=      5-min Rain = 0
KST2 141212Z 12006KT 20/15 A30 RMK A01 T01970152  RH  075%=      5-min Rain = 0
KST2 141213Z 13005KT 20/15 A30 RMK A01 T01970152  RH  075%=      5-min Rain = 0
KST2 141214Z 13005KT 20/15 A30 RMK A01 T01970152  RH  075%=      5-min Rain = 0
KST2 141215Z 12005KT 20/15 A30 RMK A01 T01970152  RH  075%=      5-min Rain = 0
KST2 141216Z 13005KT 20/15 A30 RMK A01 T01980152  RH  075%=      5-min Rain = 0
KST2 141217Z 13004KT 20/15 A30 RMK A01 T01970152  RH  075%=      5-min Rain = 0
KST2 141218Z 13004KT 20/15 A30 RMK A01 T01980152  RH  075%=      5-min Rain = 0
KST2 141219Z 12004KT 20/15 A30 RMK A01 T01980152  RH  075%=      5-min Rain = 0
KST2 141220Z 13005KT 20/15 A30 RMK A01 T01980153  RH  075%=      5-min Rain = 0
KST2 141221Z 13003KT 20/15 A30 RMK A01 T01980153  RH  075%=      5-min Rain = 0
KST2 141222Z 13004KT 20/15 A30 RMK A01 T01990154  RH  075%=      5-min Rain = 0
KST2 141223Z 13004KT 20/15 A30 RMK A01 T01980153  RH  075%=      5-min Rain = 0
KST2 141224Z 13004KT 20/15 A30 RMK A01 T01990153  RH  075%=      5-min Rain = 0
KST2 141225Z 13004KT 20/15 A30 RMK A01 T01990153  RH  075%=      5-min Rain = 0
KST2 141226Z 13004KT 20/15 A30 RMK A01 T01990154  RH  075%=      5-min Rain = 0
KST2 141227Z 13005KT 20/15 A30 RMK A01 T01990154  RH  075%=      5-min Rain = 0
KST2 141228Z 13004KT 20/15 A30 RMK A01 T02000154  RH  075%=      5-min Rain = 0
KST2 141229Z 14005KT 20/15 A30 RMK A01 T02000154  RH  075%=      5-min Rain = 0
KST2 141230Z 13005KT 20/16 A30 RMK A01 T02010155  RH  075%=      5-min Rain = 0
KST2 141231Z 13005KT 20/16 A30 RMK A01 T02010155  RH  075%=      5-min Rain = 0
KST2 141232Z 14005KT 20/16 A30 RMK A01 T02010155  RH  075%=      5-min Rain = 0
KST2 141233Z 13005KT 20/16 A30 RMK A01 T02010156  RH  075%=      5-min Rain = 0
KST2 141234Z 13004KT 20/16 A30 RMK A01 T02020156  RH  075%=      5-min Rain = 0
KST2 141235Z 13005KT 20/16 A30 RMK A01 T02020156  RH  075%=      5-min Rain = 0
KST2 141236Z 13005KT 20/16 A30 RMK A01 T02020156  RH  075%=      5-min Rain = 0
KST2 141237Z 13005KT 20/16 A30 RMK A01 T02030157  RH  075%=      5-min Rain = 0
KST2 141238Z 13005KT 20/16 A30 RMK A01 T02030157  RH  075%=      5-min Rain = 0
KST2 141239Z 13005KT 20/16 A30 RMK A01 T02030157  RH  075%=      5-min Rain = 0
KST2 141240Z 13006KT 20/16 A30 RMK A01 T02040157  RH  075%=      5-min Rain = 0
KST2 141241Z 13006KT 20/16 A30 RMK A01 T02040158  RH  075%=      5-min Rain = 0
KST2 141242Z 13005KT 20/16 A30 RMK A01 T02040158  RH  075%=      5-min Rain = 0
KST2 141243Z 13006KT 21/16 A2999 RMK A01 T02050159  RH  075%=      5-min Rain = 0
KST2 141244Z 14006KT 21/16 A2999 RMK A01 T02050159  RH  075%=      5-min Rain = 0
KST2 141245Z 14006KT 21/16 A2999 RMK A01 T02060159  RH  075%=      5-min Rain = 0
KST2 141246Z 14006KT 21/16 A2999 RMK A01 T02060160  RH  075%=      5-min Rain = 0
KST2 141247Z 14006KT 21/16 A2999 RMK A01 T02060160  RH  075%=      5-min Rain = 0
KST2 141248Z 14007KT 21/16 A2999 RMK A01 T02070160  RH  075%=      5-min Rain = 0
KST2 141249Z 14006KT 21/16 A2999 RMK A01 T02070161  RH  075%=      5-min Rain = 0
KST2 141250Z 14007KT 21/16 A2999 RMK A01 T02080162  RH  075%=      5-min Rain = 0
KST2 141251Z 15007KT 21/16 A2999 RMK A01 T02080162  RH  075%=      5-min Rain = 0
KST2 141252Z 16007KT 21/16 A2999 RMK A01 T02090163  RH  075%=      5-min Rain = 0
KST2 141253Z 15009KT 21/16 A2999 RMK A01 T02100164  RH  075%=      5-min Rain = 0
KST2 141254Z 16009KT 21/16 A2999 RMK A01 T02110164  RH  074%=      5-min Rain = 0
KST2 141255Z 15010KT 21/17 A2999 RMK A01 T02120165  RH  075%=      5-min Rain = 0
KST2 141256Z 15011KT 21/17 A2999 RMK A01 T02130167  RH  075%=      5-min Rain = 0
KST2 141257Z 16010KT 21/17 A2999 RMK A01 T02140167  RH  074%=      5-min Rain = 0
KST2 141258Z 17012KT 22/17 A2999 RMK A01 T02150168  RH  074%=      5-min Rain = 0
KST2 141259Z 16010KT 22/17 A2999 RMK A01 T02160169  RH  074%=      5-min Rain = 0
KST2 141300Z 17011KT 22/17 A2999 RMK A01 T02170169  RH  074%=      5-min Rain = 0
KST2 141301Z 16010KT 22/17 A2999 RMK A01 T02180170  RH  074%=      5-min Rain = 0
KST2 141302Z 17010KT 22/17 A2999 RMK A01 T02190171  RH  074%=      5-min Rain = 0
KST2 141303Z 17013G18KT 22/17 A2999 RMK A01 T02190171  RH  074%=      5-min Rain = 0
KST2 141304Z 16010KT 22/17 A2999 RMK A01 T02200172  RH  074%=      5-min Rain = 0
KST2 141305Z 17013KT 22/17 A2998 RMK A01 T02210172  RH  074%=      5-min Rain = 0
KST2 141306Z 17012KT 22/17 A2998 RMK A01 T02210172  RH  074%=      5-min Rain = 0
KST2 141307Z 16012KT 22/17 A2998 RMK A01 T02220173  RH  074%=      5-min Rain = 0
KST2 141308Z 17012KT 22/17 A2998 RMK A01 T02220173  RH  074%=      5-min Rain = 0
KST2 141309Z 16011KT 22/17 A2998 RMK A01 T02230173  RH  074%=      5-min Rain = 0
KST2 141310Z 17012KT 22/17 A2998 RMK A01 T02230174  RH  074%=      5-min Rain = 0
KST2 141311Z 17014KT 22/17 A2998 RMK A01 T02240174  RH  073%=      5-min Rain = 0
KST2 141312Z 16016KT 22/17 A2998 RMK A01 T02240174  RH  073%=      5-min Rain = 0
KST2 141313Z 16013KT 22/17 A2998 RMK A01 T02240174  RH  073%=      5-min Rain = 0
KST2 141314Z 16013KT 22/17 A2998 RMK A01 T02240174  RH  073%=      5-min Rain = 0
KST2 141315Z 16012KT 23/18 A2998 RMK A01 T02250175  RH  073%=      5-min Rain = 0
KST2 141316Z 17016KT 23/18 A2998 RMK A01 T02250175  RH  073%=      5-min Rain = 0
KST2 141317Z 17017KT 23/18 A2998 RMK A01 T02260175  RH  073%=      5-min Rain = 0
KST2 141318Z 17017KT 23/18 A2998 RMK A01 T02260175  RH  073%=      5-min Rain = 0
KST2 141319Z 17016KT 23/17 A2997 RMK A01 T02260174  RH  073%=      5-min Rain = 0
KST2 141320Z 17014KT 23/18 A2997 RMK A01 T02260175  RH  073%=      5-min Rain = 0
KST2 141321Z 17015KT 23/18 A2997 RMK A01 T02260175  RH  073%=      5-min Rain = 0
KST2 141322Z 17015KT 23/18 A2997 RMK A01 T02270175  RH  073%=      5-min Rain = 0
KST2 141323Z 17013KT 23/18 A2997 RMK A01 T02270175  RH  073%=      5-min Rain = 0
KST2 141324Z 17014KT 23/18 A2997 RMK A01 T02270176  RH  073%=      5-min Rain = 0
KST2 141325Z 18012KT 23/18 A2997 RMK A01 T02280176  RH  073%=      5-min Rain = 0
KST2 141326Z 17012KT 23/18 A2997 RMK A01 T02290177  RH  073%=      5-min Rain = 0
KST2 141327Z 18014KT 23/18 A2997 RMK A01 T02290177  RH  072%=      5-min Rain = 0
KST2 141328Z 18015KT 23/18 A2997 RMK A01 T02300178  RH  072%=      5-min Rain = 0
KST2 141329Z 18014KT 23/18 A2997 RMK A01 T02300177  RH  072%=      5-min Rain = 0
KST2 141330Z 17013KT 23/18 A2997 RMK A01 T02300178  RH  072%=      5-min Rain = 0
KST2 141331Z 18014KT 23/18 A2997 RMK A01 T02300178  RH  072%=      5-min Rain = 0
KST2 141332Z 17015G21KT 23/18 A2997 RMK A01 T02310178  RH  072%=      5-min Rain = 0
KST2 141333Z 17018KT 23/18 A2997 RMK A01 T02310178  RH  072%=      5-min Rain = 0
KST2 141334Z 18016KT 23/18 A2997 RMK A01 T02310177  RH  072%=      5-min Rain = 0
KST2 141335Z 17014KT 23/18 A2997 RMK A01 T02310177  RH  072%=      5-min Rain = 0
KST2 141336Z 18013KT 23/18 A2997 RMK A01 T02310178  RH  072%=      5-min Rain = 0
KST2 141337Z 17014KT 23/18 A2997 RMK A01 T02320179  RH  072%=      5-min Rain = 0
KST2 141338Z 17015KT 23/18 A2997 RMK A01 T02320179  RH  072%=      5-min Rain = 0
KST2 141339Z 17013KT 23/18 A2997 RMK A01 T02330179  RH  072%=      5-min Rain = 0
KST2 141340Z 17015KT 23/18 A2996 RMK A01 T02340180  RH  072%=      5-min Rain = 0
KST2 141341Z 17016KT 23/18 A2996 RMK A01 T02340179  RH  071%=      5-min Rain = 0
KST2 141342Z 17015KT 23/18 A2997 RMK A01 T02340180  RH  072%=      5-min Rain = 0
KST2 141343Z 17015KT 23/18 A2997 RMK A01 T02340180  RH  072%=      5-min Rain = 0
KST2 141344Z 18013KT 24/18 A2997 RMK A01 T02350180  RH  071%=      5-min Rain = 0
KST2 141345Z 18013KT 24/18 A2997 RMK A01 T02360181  RH  071%=      5-min Rain = 0
KST2 141346Z 18014KT 24/18 A2997 RMK A01 T02370182  RH  071%=      5-min Rain = 0
KST2 141347Z 18015KT 24/18 A2997 RMK A01 T02370182  RH  071%=      5-min Rain = 0
KST2 141348Z 17015KT 24/18 A2997 RMK A01 T02380182  RH  071%=      5-min Rain = 0
KST2 141349Z 18015KT 24/18 A2997 RMK A01 T02380182  RH  071%=      5-min Rain = 0
KST2 141350Z 18016KT 24/18 A2997 RMK A01 T02380182  RH  071%=      5-min Rain = 0
KST2 141351Z 18017KT 24/18 A2997 RMK A01 T02380181  RH  071%=      5-min Rain = 0
KST2 141352Z 17017KT 24/18 A2996 RMK A01 T02380181  RH  071%=      5-min Rain = 0
KST2 141353Z 17018KT 24/18 A2996 RMK A01 T02380182  RH  071%=      5-min Rain = 0
KST2 141354Z 18016KT 24/18 A2997 RMK A01 T02390182  RH  071%=      5-min Rain = 0
KST2 141355Z 18014KT 24/18 A2997 RMK A01 T02400183  RH  070%=      5-min Rain = 0
KST2 141356Z 17015KT 24/18 A2997 RMK A01 T02410184  RH  070%=      5-min Rain = 0
KST2 141357Z 18016KT 24/18 A2997 RMK A01 T02430184  RH  070%=      5-min Rain = 0
KST2 141358Z 18017KT 24/19 A2996 RMK A01 T02430185  RH  070%=      5-min Rain = 0
KST2 141359Z 18018G23KT 24/18 A2996 RMK A01 T02430184  RH  070%=      5-min Rain = 0
KST2 141400Z 18019KT 24/18 A2996 RMK A01 T02430184  RH  069%=      5-min Rain = 0
KST2 141401Z 18020KT 24/18 A2996 RMK A01 T02420183  RH  069%=      5-min Rain = 0
KST2 141402Z 18018KT 24/18 A2996 RMK A01 T02420183  RH  069%=      5-min Rain = 0
KST2 141403Z 18018KT 24/18 A2996 RMK A01 T02420183  RH  069%=      5-min Rain = 0
KST2 141404Z 18017G23KT 24/18 A2996 RMK A01 T02420183  RH  069%=      5-min Rain = 0
KST2 141405Z 18017G22KT 24/18 A2996 RMK A01 T02430183  RH  069%=      5-min Rain = 0
KST2 141406Z 18021KT 24/18 A2996 RMK A01 T02420183  RH  069%=      5-min Rain = 0
KST2 141407Z 18018KT 24/18 A2996 RMK A01 T02430183  RH  069%=      5-min Rain = 0
KST2 141408Z 18017KT 24/18 A2996 RMK A01 T02430183  RH  069%=      5-min Rain = 0
KST2 141409Z 18020KT 24/18 A2996 RMK A01 T02430183  RH  069%=      5-min Rain = 0
KST2 141410Z 18018KT 24/18 A2996 RMK A01 T02430182  RH  069%=      5-min Rain = 0
KST2 141411Z 18014G19KT 24/18 A2996 RMK A01 T02430183  RH  069%=      5-min Rain = 0
KST2 141412Z 18015KT 24/18 A2996 RMK A01 T02430183  RH  069%=      5-min Rain = 0
KST2 141413Z 18016KT 24/18 A2996 RMK A01 T02440184  RH  069%=      5-min Rain = 0
KST2 141414Z 18016G21KT 25/18 A2996 RMK A01 T02450184  RH  069%=      5-min Rain = 0
KST2 141415Z 18019KT 24/18 A2996 RMK A01 T02440184  RH  069%=      5-min Rain = 0
KST2 141416Z 18020KT 24/18 A2996 RMK A01 T02430182  RH  069%=      5-min Rain = 0
KST2 141417Z 18019KT 24/18 A2996 RMK A01 T02430182  RH  069%=      5-min Rain = 0
KST2 141418Z 18018KT 24/18 A2996 RMK A01 T02430182  RH  069%=      5-min Rain = 0
KST2 141419Z 18019KT 24/18 A2996 RMK A01 T02430183  RH  069%=      5-min Rain = 0
KST2 141420Z 19017KT 24/18 A2996 RMK A01 T02440183  RH  069%=      5-min Rain = 0
KST2 141421Z 19017G22KT 25/19 A2996 RMK A01 T02450185  RH  069%=      5-min Rain = 0
KST2 141422Z 19018G23KT 25/19 A2996 RMK A01 T02470185  RH  068%=      5-min Rain = 0
KST2 141423Z 20018KT 25/19 A2996 RMK A01 T02480186  RH  068%=      5-min Rain = 0
KST2 141424Z 19017KT 25/19 A2996 RMK A01 T02490186  RH  068%=      5-min Rain = 0
KST2 141425Z 19019G24KT 25/19 A2996 RMK A01 T02490186  RH  068%=      5-min Rain = 0
KST2 141426Z 19017KT 25/19 A2996 RMK A01 T02490185  RH  068%=      5-min Rain = 0
KST2 141427Z 19015KT 25/19 A2996 RMK A01 T02490186  RH  068%=      5-min Rain = 0
KST2 141428Z 19020KT 25/19 A2996 RMK A01 T02490186  RH  068%=      5-min Rain = 0
KST2 141429Z 18020KT 25/19 A2995 RMK A01 T02490185  RH  067%=      5-min Rain = 0
KST2 141430Z 19018KT 25/19 A2995 RMK A01 T02480185  RH  068%=      5-min Rain = 0
KST2 141431Z 18019KT 25/19 A2995 RMK A01 T02480185  RH  068%=      5-min Rain = 0
KST2 141432Z 18022KT 25/19 A2995 RMK A01 T02490185  RH  067%=      5-min Rain = 0
KST2 141433Z 18019KT 25/18 A2995 RMK A01 T02490184  RH  067%=      5-min Rain = 0
KST2 141434Z 18016KT 25/18 A2995 RMK A01 T02490184  RH  067%=      5-min Rain = 0
KST2 141435Z 19021KT 25/18 A2995 RMK A01 T02490184  RH  067%=      5-min Rain = 0
KST2 141436Z 18019KT 25/19 A2995 RMK A01 T02490185  RH  067%=      5-min Rain = 0
KST2 141437Z 18019KT 25/18 A2995 RMK A01 T02490184  RH  067%=      5-min Rain = 0
KST2 141438Z 19018KT 25/18 A2995 RMK A01 T02490184  RH  067%=      5-min Rain = 0
KST2 141439Z 19017KT 25/19 A2995 RMK A01 T02500185  RH  067%=      5-min Rain = 0
KST2 141440Z 19018KT 25/19 A2995 RMK A01 T02510186  RH  067%=      5-min Rain = 0
KST2 141441Z 19020G25KT 25/19 A2995 RMK A01 T02520186  RH  067%=      5-min Rain = 0
KST2 141442Z 19021KT 25/19 A2995 RMK A01 T02530187  RH  067%=      5-min Rain = 0
KST2 141443Z 19020KT 25/19 A2995 RMK A01 T02530186  RH  066%=      5-min Rain = 0
KST2 141444Z 20019KT 25/19 A2995 RMK A01 T02540187  RH  066%=      5-min Rain = 0
KST2 141445Z 19020KT 26/19 A2995 RMK A01 T02560189  RH  066%=      5-min Rain = 0
KST2 141446Z 19021KT 26/19 A2995 RMK A01 T02580189  RH  066%=      5-min Rain = 0
KST2 141447Z 19021KT 26/19 A2995 RMK A01 T02580189  RH  066%=      5-min Rain = 0
KST2 141448Z 19020KT 26/19 A2995 RMK A01 T02580188  RH  065%=      5-min Rain = 0
KST2 141449Z 20019KT 26/19 A2995 RMK A01 T02590189  RH  065%=      5-min Rain = 0
KST2 141450Z 20024G31KT 26/19 A2994 RMK A01 T02600189  RH  065%=      5-min Rain = 0
KST2 141451Z 20023G28KT 26/19 A2994 RMK A01 T02610189  RH  064%=      5-min Rain = 0
KST2 141452Z 20021G26KT 26/19 A2994 RMK A01 T02620189  RH  064%=      5-min Rain = 0
KST2 141453Z 19019KT 26/19 A2994 RMK A01 T02640190  RH  064%=      5-min Rain = 0
KST2 141454Z 19022G28KT 27/19 A2994 RMK A01 T02650190  RH  064%=      5-min Rain = 0
KST2 141455Z 19024KT 27/19 A2994 RMK A01 T02650189  RH  063%=      5-min Rain = 0
KST2 141456Z 18023KT 26/19 A2994 RMK A01 T02640188  RH  063%=      5-min Rain = 0
KST2 141457Z 20023KT 26/19 A2994 RMK A01 T02640188  RH  063%=      5-min Rain = 0
KST2 141458Z 19023KT 26/19 A2994 RMK A01 T02640187  RH  063%=      5-min Rain = 0
KST2 141459Z 19023G28KT 26/19 A2994 RMK A01 T02630187  RH  063%=      5-min Rain = 0
KST2 141500Z 18023G28KT 26/19 A2994 RMK A01 T02630186  RH  062%=      5-min Rain = 0
KST2 141501Z 19021KT 26/19 A2994 RMK A01 T02620186  RH  063%=      5-min Rain = 0
KST2 141502Z 19023KT 26/19 A2994 RMK A01 T02630186  RH  063%=      5-min Rain = 0
KST2 141503Z 19023KT 26/19 A2994 RMK A01 T02640186  RH  062%=      5-min Rain = 0
KST2 141504Z 19025KT 26/19 A2994 RMK A01 T02640186  RH  062%=      5-min Rain = 0
KST2 141505Z 20023KT 26/19 A2994 RMK A01 T02640186  RH  062%=      5-min Rain = 0
KST2 141506Z 20022KT 26/19 A2994 RMK A01 T02640185  RH  062%=      5-min Rain = 0
KST2 141507Z 19024KT 26/19 A2994 RMK A01 T02640185  RH  062%=      5-min Rain = 0
KST2 141508Z 19024G30KT 26/18 A2994 RMK A01 T02630183  RH  062%=      5-min Rain = 0
KST2 141509Z 19025KT 26/18 A2994 RMK A01 T02610183  RH  062%=      5-min Rain = 0
KST2 141510Z 19026KT 26/18 A2994 RMK A01 T02620182  RH  062%=      5-min Rain = 0
KST2 141511Z 20024KT 26/18 A2994 RMK A01 T02620183  RH  062%=      5-min Rain = 0
KST2 141512Z 19023KT 26/18 A2994 RMK A01 T02630183  RH  062%=      5-min Rain = 0
KST2 141513Z 20024KT 26/18 A2994 RMK A01 T02630184  RH  062%=      5-min Rain = 0
KST2 141514Z 19026KT 26/18 A2994 RMK A01 T02640184  RH  061%=      5-min Rain = 0
KST2 141515Z 19024KT 26/18 A2993 RMK A01 T02640184  RH  061%=      5-min Rain = 0
KST2 141516Z 18023G28KT 26/18 A2993 RMK A01 T02640184  RH  061%=      5-min Rain = 0
KST2 141517Z 18024KT 27/19 A2993 RMK A01 T02660185  RH  061%=      5-min Rain = 0
KST2 141518Z 19023KT 27/19 A2993 RMK A01 T02660185  RH  061%=      5-min Rain = 0
KST2 141519Z 19023G29KT 27/19 A2993 RMK A01 T02660185  RH  061%=      5-min Rain = 0
KST2 141520Z 18026KT 27/19 A2993 RMK A01 T02670185  RH  061%=      5-min Rain = 0
KST2 141521Z 18023KT 27/18 A2993 RMK A01 T02670184  RH  060%=      5-min Rain = 0
KST2 141522Z 19023KT 27/19 A2993 RMK A01 T02670185  RH  061%=      5-min Rain = 0
KST2 141523Z 19024KT 27/19 A2993 RMK A01 T02670185  RH  060%=      5-min Rain = 0
KST2 141524Z 20023KT 27/19 A2993 RMK A01 T02680185  RH  060%=      5-min Rain = 0
KST2 141525Z 18020G26KT 27/19 A2993 RMK A01 T02690186  RH  060%=      5-min Rain = 0
KST2 141526Z 19023KT 27/19 A2993 RMK A01 T02710186  RH  060%=      5-min Rain = 0
KST2 141527Z 18024G29KT 27/19 A2993 RMK A01 T02710186  RH  060%=      5-min Rain = 0
KST2 141528Z 19021KT 27/19 A2993 RMK A01 T02700186  RH  060%=      5-min Rain = 0
KST2 141529Z 19024G29KT 27/19 A2993 RMK A01 T02700186  RH  060%=      5-min Rain = 0
KST2 141530Z 18024KT 27/19 A2993 RMK A01 T02700185  RH  060%=      5-min Rain = 0
KST2 141531Z 19022KT 27/19 A2993 RMK A01 T02690185  RH  060%=      5-min Rain = 0
KST2 141532Z 19022KT 27/19 A2993 RMK A01 T02690185  RH  060%=      5-min Rain = 0
KST2 141533Z 18023G28KT 27/19 A2993 RMK A01 T02710186  RH  060%=      5-min Rain = 0
KST2 141534Z 19023G28KT 27/19 A2993 RMK A01 T02720186  RH  060%=      5-min Rain = 0
KST2 141535Z 19020KT 27/19 A2993 RMK A01 T02730186  RH  059%=      5-min Rain = 0
KST2 141536Z 19024KT 28/19 A2993 RMK A01 T02750188  RH  059%=      5-min Rain = 0
KST2 141537Z 19024KT 28/19 A2993 RMK A01 T02770189  RH  059%=      5-min Rain = 0
KST2 141538Z 19021KT 28/19 A2993 RMK A01 T02770188  RH  058%=      5-min Rain = 0
KST2 141539Z 20023KT 28/19 A2993 RMK A01 T02780189  RH  058%=      5-min Rain = 0
KST2 141540Z 19021KT 28/19 A2993 RMK A01 T02790188  RH  058%=      5-min Rain = 0
KST2 141541Z 18024KT 28/19 A2992 RMK A01 T02790188  RH  058%=      5-min Rain = 0
KST2 141542Z 19023KT 28/19 A2992 RMK A01 T02780187  RH  058%=      5-min Rain = 0
KST2 141543Z 19022G27KT 28/19 A2992 RMK A01 T02780187  RH  058%=      5-min Rain = 0
KST2 141544Z 19026G31KT 28/19 A2992 RMK A01 T02780186  RH  057%=      5-min Rain = 0
KST2 141545Z 18025KT 28/19 A2992 RMK A01 T02780186  RH  057%=      5-min Rain = 0
KST2 141546Z 19024KT 28/19 A2992 RMK A01 T02780185  RH  057%=      5-min Rain = 0
KST2 141547Z 19023KT 28/19 A2992 RMK A01 T02780186  RH  057%=      5-min Rain = 0
KST2 141548Z 19023KT 28/19 A2992 RMK A01 T02790186  RH  057%=      5-min Rain = 0
KST2 141549Z 19021KT 28/19 A2992 RMK A01 T02800187  RH  057%=      5-min Rain = 0
KST2 141550Z 19025KT 28/19 A2992 RMK A01 T02810186  RH  057%=      5-min Rain = 0
KST2 141551Z 19024KT 28/19 A2992 RMK A01 T02810186  RH  056%=      5-min Rain = 0
KST2 141552Z 19023G29KT 28/19 A2992 RMK A01 T02810186  RH  056%=      5-min Rain = 0
KST2 141553Z 18024KT 28/19 A2992 RMK A01 T02800185  RH  056%=      5-min Rain = 0
KST2 141554Z 19023KT 28/18 A2992 RMK A01 T02780184  RH  056%=      5-min Rain = 0
KST2 141555Z 19025KT 28/18 A2992 RMK A01 T02780183  RH  056%=      5-min Rain = 0
KST2 141556Z 20022KT 28/18 A2992 RMK A01 T02770182  RH  056%=      5-min Rain = 0
KST2 141557Z 20021KT 28/18 A2992 RMK A01 T02760183  RH  057%=      5-min Rain = 0
KST2 141558Z 19020KT 28/18 A2992 RMK A01 T02770183  RH  057%=      5-min Rain = 0
KST2 141559Z 19022G28KT 28/18 A2992 RMK A01 T02770183  RH  056%=      5-min Rain = 0
KST2 141600Z 19023KT 28/18 A2992 RMK A01 T02770182  RH  056%=      5-min Rain = 0
KST2 141601Z 19018G23KT 28/18 A2992 RMK A01 T02760181  RH  056%=      5-min Rain = 0
KST2 141602Z 18022KT 28/18 A2992 RMK A01 T02750182  RH  057%=      5-min Rain = 0
KST2 141603Z 18021KT 28/18 A2992 RMK A01 T02750181  RH  056%=      5-min Rain = 0
KST2 141604Z 18021KT 27/18 A2992 RMK A01 T02740181  RH  057%=      5-min Rain = 0
KST2 141605Z 20024KT 27/18 A2992 RMK A01 T02740181  RH  057%=      5-min Rain = 0
KST2 141606Z 19024KT 27/18 A2992 RMK A01 T02740180  RH  056%=      5-min Rain = 0
KST2 141607Z 19021G26KT 27/18 A2992 RMK A01 T02740180  RH  057%=      5-min Rain = 0
KST2 141608Z 19025KT 27/18 A2992 RMK A01 T02740180  RH  057%=      5-min Rain = 0
KST2 141609Z 19025KT 27/18 A2992 RMK A01 T02730179  RH  057%=      5-min Rain = 0
KST2 141610Z 19023KT 27/18 A2992 RMK A01 T02730180  RH  057%=      5-min Rain = 0
KST2 141611Z 20022KT 27/18 A2992 RMK A01 T02720180  RH  057%=      5-min Rain = 0
KST2 141612Z 20023KT 27/18 A2992 RMK A01 T02730180  RH  057%=      5-min Rain = 0
KST2 141613Z 20020KT 27/18 A2992 RMK A01 T02730181  RH  057%=      5-min Rain = 0
KST2 141614Z 20023KT 28/18 A2992 RMK A01 T02750182  RH  057%=      5-min Rain = 0
KST2 141615Z 20022G28KT 28/18 A2992 RMK A01 T02760182  RH  057%=      5-min Rain = 0
KST2 141616Z 20023KT 28/18 A2992 RMK A01 T02770183  RH  057%=      5-min Rain = 0
KST2 141617Z 19019KT 28/18 A2992 RMK A01 T02780184  RH  057%=      5-min Rain = 0
KST2 141618Z 20019KT 28/18 A2992 RMK A01 T02790184  RH  056%=      5-min Rain = 0
KST2 141619Z 21021KT 28/18 A2992 RMK A01 T02800184  RH  056%=      5-min Rain = 0
KST2 141620Z 21021KT 28/18 A2992 RMK A01 T02800184  RH  056%=      5-min Rain = 0
KST2 141621Z 19020KT 28/19 A2992 RMK A01 T02810185  RH  056%=      5-min Rain = 0
KST2 141622Z 19022KT 28/19 A2992 RMK A01 T02830186  RH  056%=      5-min Rain = 0
KST2 141623Z 20018KT 29/19 A2992 RMK A01 T02850187  RH  056%=      5-min Rain = 0
KST2 141624Z 19020KT 29/19 A2992 RMK A01 T02870188  RH  055%=      5-min Rain = 0
KST2 141625Z 20021KT 29/19 A2992 RMK A01 T02870188  RH  055%=      5-min Rain = 0
KST2 141626Z 20022G27KT 29/19 A2992 RMK A01 T02880188  RH  055%=      5-min Rain = 0
KST2 141627Z 21022KT 29/19 A2992 RMK A01 T02890188  RH  054%=      5-min Rain = 0
KST2 141628Z 20025KT 29/19 A2992 RMK A01 T02890188  RH  054%=      5-min Rain = 0
KST2 141629Z 20021KT 29/19 A2992 RMK A01 T02870186  RH  054%=      5-min Rain = 0
KST2 141630Z 20022KT 29/19 A2992 RMK A01 T02860186  RH  054%=      5-min Rain = 0
KST2 141631Z 20021KT 29/19 A2992 RMK A01 T02860185  RH  054%=      5-min Rain = 0
KST2 141632Z 20022G27KT 29/19 A2992 RMK A01 T02860185  RH  054%=      5-min Rain = 0
KST2 141633Z 19022KT 29/18 A2992 RMK A01 T02850184  RH  054%=      5-min Rain = 0
KST2 141634Z 18020KT 29/18 A2992 RMK A01 T02850184  RH  054%=      5-min Rain = 0
KST2 141635Z 19022KT 29/18 A2992 RMK A01 T02850184  RH  054%=      5-min Rain = 0
KST2 141636Z 19022KT 29/18 A2992 RMK A01 T02850184  RH  054%=      5-min Rain = 0
KST2 141637Z 19020KT 29/18 A2992 RMK A01 T02850184  RH  054%=      5-min Rain = 0
KST2 141638Z 20018G23KT 29/19 A2992 RMK A01 T02860186  RH  054%=      5-min Rain = 0
KST2 141639Z 19022KT 29/19 A2992 RMK A01 T02880185  RH  054%=      5-min Rain = 0
KST2 141640Z 20023KT 29/19 A2992 RMK A01 T02880185  RH  054%=      5-min Rain = 0
KST2 141641Z 20023KT 29/19 A2992 RMK A01 T02880185  RH  054%=      5-min Rain = 0
KST2 141642Z 20021KT 29/18 A2992 RMK A01 T02870184  RH  054%=      5-min Rain = 0
KST2 141643Z 21025KT 29/18 A2992 RMK A01 T02870184  RH  054%=      5-min Rain = 0
KST2 141644Z 20023G29KT 29/18 A2992 RMK A01 T02880184  RH  053%=      5-min Rain = 0
KST2 141645Z 20022KT 29/19 A2992 RMK A01 T02890185  RH  054%=      5-min Rain = 0
KST2 141646Z 20021G26KT 29/19 A2992 RMK A01 T02900185  RH  053%=      5-min Rain = 0
KST2 141647Z 20024G29KT 29/19 A2992 RMK A01 T02910186  RH  053%=      5-min Rain = 0
KST2 141648Z 20021KT 29/19 A2992 RMK A01 T02920186  RH  053%=      5-min Rain = 0
KST2 141649Z 19019G24KT 29/19 A2992 RMK A01 T02930187  RH  053%=      5-min Rain = 0
KST2 141650Z 20022KT 29/19 A2992 RMK A01 T02930186  RH  053%=      5-min Rain = 0
KST2 141651Z 20025KT 29/19 A2992 RMK A01 T02930186  RH  053%=      5-min Rain = 0
KST2 141652Z 19021KT 29/19 A2992 RMK A01 T02930186  RH  052%=      5-min Rain = 0
KST2 141653Z 19019KT 29/19 A2992 RMK A01 T02930186  RH  053%=      5-min Rain = 0
KST2 141654Z 20021KT 29/19 A2992 RMK A01 T02930187  RH  053%=      5-min Rain = 0
KST2 141655Z 19023KT 29/19 A2992 RMK A01 T02940186  RH  052%=      5-min Rain = 0
KST2 141656Z 19022KT 29/18 A2992 RMK A01 T02930184  RH  052%=      5-min Rain = 0
KST2 141657Z 19023KT 29/18 A2992 RMK A01 T02910184  RH  052%=      5-min Rain = 0
KST2 141658Z 19018KT 29/18 A2992 RMK A01 T02900183  RH  052%=      5-min Rain = 0
KST2 141659Z 20019G26KT 29/18 A2992 RMK A01 T02900184  RH  053%=      5-min Rain = 0
KST2 141700Z 20022KT 29/18 A2992 RMK A01 T02900183  RH  052%=      5-min Rain = 0
KST2 141701Z 19022KT 29/18 A2992 RMK A01 T02910183  RH  052%=      5-min Rain = 0
KST2 141702Z 19020KT 29/18 A2992 RMK A01 T02900182  RH  052%=      5-min Rain = 0
KST2 141703Z 20019KT 29/18 A2992 RMK A01 T02890182  RH  052%=      5-min Rain = 0
KST2 141704Z 20020KT 29/18 A2992 RMK A01 T02890182  RH  052%=      5-min Rain = 0
KST2 141705Z 20019G25KT 29/18 A2992 RMK A01 T02890182  RH  052%=      5-min Rain = 0
KST2 141706Z 21022KT 29/18 A2992 RMK A01 T02890181  RH  052%=      5-min Rain = 0
KST2 141707Z 20020KT 29/18 A2992 RMK A01 T02880180  RH  052%=      5-min Rain = 0
KST2 141708Z 20020KT 29/18 A2992 RMK A01 T02870180  RH  052%=      5-min Rain = 0
KST2 141709Z 19021KT 29/18 A2992 RMK A01 T02870180  RH  052%=      5-min Rain = 0
KST2 141710Z 20019KT 29/18 A2992 RMK A01 T02860180  RH  053%=      5-min Rain = 0
KST2 141711Z 20019KT 29/18 A2992 RMK A01 T02860180  RH  053%=      5-min Rain = 0
KST2 141712Z 20023KT 29/18 A2992 RMK A01 T02860180  RH  052%=      5-min Rain = 0
KST2 141713Z 20025KT 29/18 A2992 RMK A01 T02870179  RH  052%=      5-min Rain = 0
KST2 141714Z 20025KT 29/18 A2992 RMK A01 T02860178  RH  052%=      5-min Rain = 0
KST2 141715Z 20021KT 29/18 A2992 RMK A01 T02850178  RH  052%=      5-min Rain = 0
KST2 141716Z 20020KT 29/18 A2992 RMK A01 T02850178  RH  052%=      5-min Rain = 0
KST2 141717Z 20019KT 29/18 A2992 RMK A01 T02850178  RH  052%=      5-min Rain = 0
KST2 141718Z 20018KT 29/18 A2992 RMK A01 T02860179  RH  052%=      5-min Rain = 0
KST2 141719Z 19018G23KT 29/18 A2992 RMK A01 T02860179  RH  052%=      5-min Rain = 0
KST2 141720Z 19021KT 29/18 A2992 RMK A01 T02860179  RH  052%=      5-min Rain = 0
KST2 141721Z 19021KT 29/18 A2992 RMK A01 T02860179  RH  052%=      5-min Rain = 0
KST2 141722Z 19022KT 29/18 A2992 RMK A01 T02860179  RH  052%=      5-min Rain = 0
KST2 141723Z 19019KT 29/18 A2992 RMK A01 T02860179  RH  052%=      5-min Rain = 0
KST2 141724Z 19018KT 29/18 A2992 RMK A01 T02860180  RH  053%=      5-min Rain = 0
KST2 141725Z 19016KT 29/18 A2992 RMK A01 T02870180  RH  053%=      5-min Rain = 0
KST2 141726Z 19021KT 29/18 A2992 RMK A01 T02870180  RH  052%=      5-min Rain = 0
KST2 141727Z 19021KT 29/18 A2992 RMK A01 T02870180  RH  052%=      5-min Rain = 0
KST2 141728Z 19020KT 29/18 A2992 RMK A01 T02870180  RH  052%=      5-min Rain = 0
KST2 141729Z 18023KT 29/18 A2992 RMK A01 T02870180  RH  052%=      5-min Rain = 0
KST2 141730Z 19021KT 29/18 A2992 RMK A01 T02870179  RH  052%=      5-min Rain = 0
KST2 141731Z 19022KT 29/18 A2992 RMK A01 T02870179  RH  052%=      5-min Rain = 0
KST2 141732Z 19021KT 29/18 A2992 RMK A01 T02870180  RH  052%=      5-min Rain = 0
KST2 141733Z 20019KT 29/18 A2992 RMK A01 T02880181  RH  052%=      5-min Rain = 0
KST2 141734Z 19022G28KT 29/18 A2992 RMK A01 T02900181  RH  052%=      5-min Rain = 0
KST2 141735Z 19023KT 29/18 A2991 RMK A01 T02900182  RH  052%=      5-min Rain = 0
KST2 141736Z 20023KT 29/18 A2991 RMK A01 T02910182  RH  052%=      5-min Rain = 0
KST2 141737Z 20021KT 29/18 A2991 RMK A01 T02920183  RH  052%=      5-min Rain = 0
KST2 141738Z 19017KT 29/18 A2991 RMK A01 T02930183  RH  052%=      5-min Rain = 0
KST2 141739Z 20017KT 29/18 A2991 RMK A01 T02930183  RH  052%=      5-min Rain = 0
KST2 141740Z 19017KT 30/19 A2991 RMK A01 T02950186  RH  052%=      5-min Rain = 0
KST2 141741Z 19021KT 30/19 A2991 RMK A01 T02990187  RH  051%=      5-min Rain = 0
KST2 141742Z 20019KT 30/19 A2991 RMK A01 T03000187  RH  051%=      5-min Rain = 0
KST2 141743Z 20021KT 30/19 A2991 RMK A01 T03010188  RH  051%=      5-min Rain = 0
KST2 141744Z 20020KT 30/19 A2991 RMK A01 T03020188  RH  051%=      5-min Rain = 0
KST2 141745Z 18022KT 30/19 A2991 RMK A01 T03030188  RH  050%=      5-min Rain = 0
KST2 141746Z 19018G24KT 30/19 A2991 RMK A01 T03010186  RH  050%=      5-min Rain = 0
KST2 141747Z 19022KT 30/19 A2991 RMK A01 T03000186  RH  050%=      5-min Rain = 0
KST2 141748Z 19024KT 30/19 A2991 RMK A01 T02990185  RH  050%=      5-min Rain = 0
KST2 141749Z 19021KT 30/18 A2991 RMK A01 T02980184  RH  050%=      5-min Rain = 0
KST2 141750Z 19017KT 30/18 A2991 RMK A01 T02980183  RH  050%=      5-min Rain = 0
KST2 141751Z 19016KT 30/19 A2991 RMK A01 T02990186  RH  051%=      5-min Rain = 0
KST2 141752Z 19017KT 30/19 A2991 RMK A01 T03020188  RH  050%=      5-min Rain = 0
KST2 141753Z 19017G25KT 30/19 A2991 RMK A01 T03040188  RH  050%=      5-min Rain = 0
KST2 141754Z 19021G26KT 31/19 A299 RMK A01 T03070189  RH  049%=      5-min Rain = 0
KST2 141755Z 18021G27KT 31/19 A299 RMK A01 T03070188  RH  049%=      5-min Rain = 0
KST2 141756Z 19023KT 31/19 A299 RMK A01 T03070188  RH  049%=      5-min Rain = 0
KST2 141757Z 20021KT 31/19 A299 RMK A01 T03070187  RH  049%=      5-min Rain = 0
KST2 141758Z 19020G26KT 31/19 A299 RMK A01 T03060187  RH  049%=      5-min Rain = 0
KST2 141759Z 19021G28KT 31/19 A299 RMK A01 T03070187  RH  049%=      5-min Rain = 0
KST2 141800Z 19020KT 31/19 A299 RMK A01 T03080188  RH  049%=      5-min Rain = 0
KST2 141801Z 19019KT 31/19 A299 RMK A01 T03100189  RH  049%=      5-min Rain = 0
KST2 141802Z 18021G29KT 31/19 A299 RMK A01 T03120190  RH  048%=      5-min Rain = 0
KST2 141803Z 19022G28KT 31/19 A299 RMK A01 T03130190  RH  048%=      5-min Rain = 0
KST2 141804Z 19021KT 31/19 A299 RMK A01 T03120189  RH  048%=      5-min Rain = 0
KST2 141805Z 18020KT 31/19 A299 RMK A01 T03110188  RH  048%=      5-min Rain = 0
KST2 141806Z 19022KT 31/19 A299 RMK A01 T03110187  RH  048%=      5-min Rain = 0
KST2 141807Z 19025KT 31/19 A299 RMK A01 T03100187  RH  048%=      5-min Rain = 0
KST2 141808Z 20023G29KT 31/19 A299 RMK A01 T03100185  RH  048%=      5-min Rain = 0
KST2 141809Z 20021G26KT 31/19 A299 RMK A01 T03090185  RH  048%=      5-min Rain = 0
KST2 141810Z 19022G27KT 31/19 A299 RMK A01 T03090185  RH  048%=      5-min Rain = 0
KST2 141811Z 18021KT 31/18 A299 RMK A01 T03080184  RH  048%=      5-min Rain = 0
KST2 141812Z 18021G26KT 31/18 A299 RMK A01 T03070184  RH  048%=      5-min Rain = 0
KST2 141813Z 18022KT 31/18 A299 RMK A01 T03060183  RH  048%=      5-min Rain = 0
KST2 141814Z 19024KT 31/18 A299 RMK A01 T03050182  RH  048%=      5-min Rain = 0
KST2 141815Z 19022KT 30/18 A299 RMK A01 T03040181  RH  048%=      5-min Rain = 0
KST2 141816Z 19022G27KT 30/18 A299 RMK A01 T03040180  RH  048%=      5-min Rain = 0
KST2 141817Z 19023KT 30/18 A299 RMK A01 T03030180  RH  048%=      5-min Rain = 0
KST2 141818Z 19024KT 30/18 A299 RMK A01 T03030180  RH  048%=      5-min Rain = 0
KST2 141819Z 19020KT 30/18 A2989 RMK A01 T03040180  RH  048%=      5-min Rain = 0
KST2 141820Z 19023KT 31/18 A2989 RMK A01 T03050181  RH  047%=      5-min Rain = 0
KST2 141821Z 18021KT 31/18 A2989 RMK A01 T03060182  RH  047%=      5-min Rain = 0
KST2 141822Z 18023KT 31/18 A2989 RMK A01 T03060182  RH  047%=      5-min Rain = 0
KST2 141823Z 18024G29KT 31/18 A2989 RMK A01 T03070182  RH  047%=      5-min Rain = 0
KST2 141824Z 19025KT 31/18 A2989 RMK A01 T03080182  RH  047%=      5-min Rain = 0
KST2 141825Z 20022KT 31/18 A2989 RMK A01 T03090181  RH  047%=      5-min Rain = 0
KST2 141826Z 20021KT 31/18 A2989 RMK A01 T03100183  RH  047%=      5-min Rain = 0
KST2 141827Z 20019KT 31/19 A2989 RMK A01 T03130186  RH  047%=      5-min Rain = 0
KST2 141828Z 19020KT 32/19 A2989 RMK A01 T03160187  RH  046%=      5-min Rain = 0
KST2 141829Z 19018G26KT 32/19 A2989 RMK A01 T03170187  RH  046%=      5-min Rain = 0
KST2 141830Z 18024G29KT 32/19 A2988 RMK A01 T03170187  RH  046%=      5-min Rain = 0
KST2 141831Z 18024G29KT 32/19 A2988 RMK A01 T03170186  RH  046%=      5-min Rain = 0
KST2 141832Z 19023KT 32/19 A2989 RMK A01 T03160185  RH  046%=      5-min Rain = 0
KST2 141833Z 19019KT 32/18 A2989 RMK A01 T03150184  RH  046%=      5-min Rain = 0
KST2 141834Z 19018KT 32/18 A2989 RMK A01 T03150184  RH  046%=      5-min Rain = 0
KST2 141835Z 18018KT 32/19 A2989 RMK A01 T03170187  RH  046%=      5-min Rain = 0
KST2 141836Z 18023KT 32/19 A2988 RMK A01 T03190188  RH  046%=      5-min Rain = 0
KST2 141837Z 18021G26KT 32/19 A2988 RMK A01 T03200187  RH  045%=      5-min Rain = 0
KST2 141838Z 19019G25KT 32/19 A2989 RMK A01 T03210189  RH  046%=      5-min Rain = 0
KST2 141839Z 18023G29KT 33/19 A2989 RMK A01 T03250191  RH  045%=      5-min Rain = 0
KST2 141840Z 19023KT 33/19 A2989 RMK A01 T03260189  RH  044%=      5-min Rain = 0
KST2 141841Z 19024G29KT 33/19 A2989 RMK A01 T03260189  RH  044%=      5-min Rain = 0
KST2 141842Z 19023G28KT 33/19 A2989 RMK A01 T03250188  RH  044%=      5-min Rain = 0
KST2 141843Z 20021KT 32/19 A2989 RMK A01 T03240187  RH  044%=      5-min Rain = 0
KST2 141844Z 20020KT 32/19 A2989 RMK A01 T03240188  RH  045%=      5-min Rain = 0
KST2 141845Z 20018G26KT 32/19 A2989 RMK A01 T03240188  RH  044%=      5-min Rain = 0
KST2 141846Z 18024KT 33/19 A2988 RMK A01 T03260187  RH  044%=      5-min Rain = 0
KST2 141847Z 20022G28KT 33/19 A2989 RMK A01 T03260187  RH  044%=      5-min Rain = 0
KST2 141848Z 19026G31KT 33/19 A2988 RMK A01 T03280185  RH  043%=      5-min Rain = 0
KST2 141849Z 20022G27KT 33/19 A2988 RMK A01 T03280186  RH  043%=      5-min Rain = 0
KST2 141850Z 20023G29KT 33/19 A2988 RMK A01 T03300187  RH  043%=      5-min Rain = 0
KST2 141851Z 21025KT 33/19 A2988 RMK A01 T03320187  RH  042%=      5-min Rain = 0
KST2 141852Z 20023KT 33/19 A2988 RMK A01 T03320186  RH  042%=      5-min Rain = 0
KST2 141853Z 20018KT 33/19 A2989 RMK A01 T03300185  RH  042%=      5-min Rain = 0
KST2 141854Z 21019KT 33/19 A2989 RMK A01 T03300185  RH  042%=      5-min Rain = 0
KST2 141855Z 21021KT 33/19 A2988 RMK A01 T03310185  RH  042%=      5-min Rain = 0
KST2 141856Z 21020G25KT 33/19 A2989 RMK A01 T03300186  RH  042%=      5-min Rain = 0
KST2 141857Z 20023KT 33/19 A2988 RMK A01 T03300185  RH  042%=      5-min Rain = 0
KST2 141858Z 20021KT 33/18 A2988 RMK A01 T03300183  RH  042%=      5-min Rain = 0
KST2 141859Z 20017G22KT 33/19 A2988 RMK A01 T03290185  RH  043%=      5-min Rain = 0
KST2 141900Z 19019G24KT 33/19 A2988 RMK A01 T03310187  RH  043%=      5-min Rain = 0
KST2 141901Z 21022KT 33/19 A2988 RMK A01 T03340187  RH  042%=      5-min Rain = 0
KST2 141902Z 21021G27KT 33/19 A2988 RMK A01 T03340186  RH  042%=      5-min Rain = 0
KST2 141903Z 21024G32KT 33/19 A2988 RMK A01 T03340186  RH  042%=      5-min Rain = 0
KST2 141904Z 20025G32KT 33/19 A2987 RMK A01 T03340185  RH  041%=      5-min Rain = 0
KST2 141905Z 20020KT 34/19 A2988 RMK A01 T03350186  RH  041%=      5-min Rain = 0
KST2 141906Z 21023KT 33/19 A2988 RMK A01 T03340185  RH  041%=      5-min Rain = 0
KST2 141907Z 19021KT 33/19 A2987 RMK A01 T03330185  RH  042%=      5-min Rain = 0
KST2 141908Z 18021KT 33/19 A2987 RMK A01 T03330185  RH  041%=      5-min Rain = 0
KST2 141909Z 19021KT 33/18 A2987 RMK A01 T03320183  RH  041%=      5-min Rain = 0
KST2 141910Z 18020G25KT 33/18 A2987 RMK A01 T03300184  RH  042%=      5-min Rain = 0
KST2 141911Z 19019KT 33/19 A2987 RMK A01 T03310185  RH  042%=      5-min Rain = 0
KST2 141912Z 19019G24KT 33/19 A2987 RMK A01 T03320185  RH  042%=      5-min Rain = 0
KST2 141913Z 19022G27KT 33/19 A2987 RMK A01 T03330185  RH  042%=      5-min Rain = 0
KST2 141914Z 19021G26KT 33/19 A2987 RMK A01 T03330185  RH  042%=      5-min Rain = 0
KST2 141915Z 18024KT 33/18 A2987 RMK A01 T03310182  RH  041%=      5-min Rain = 0
KST2 141916Z 18022KT 33/18 A2987 RMK A01 T03270180  RH  042%=      5-min Rain = 0
KST2 141917Z 19022G27KT 33/18 A2987 RMK A01 T03250180  RH  042%=      5-min Rain = 0
KST2 141918Z 19022KT 33/18 A2987 RMK A01 T03250180  RH  042%=      5-min Rain = 0
KST2 141919Z 19022G27KT 33/18 A2987 RMK A01 T03250180  RH  042%=      5-min Rain = 0
KST2 141920Z 18020KT 33/18 A2987 RMK A01 T03250180  RH  042%=      5-min Rain = 0
KST2 141921Z 18021KT 32/18 A2987 RMK A01 T03240179  RH  042%=      5-min Rain = 0
KST2 141922Z 18019KT 32/18 A2987 RMK A01 T03240180  RH  042%=      5-min Rain = 0
KST2 141923Z 19020KT 32/18 A2987 RMK A01 T03240180  RH  042%=      5-min Rain = 0
KST2 141924Z 19018G23KT 33/18 A2987 RMK A01 T03250179  RH  042%=      5-min Rain = 0
KST2 141925Z 18017KT 33/18 A2987 RMK A01 T03250180  RH  042%=      5-min Rain = 0
KST2 141926Z 18021KT 33/18 A2986 RMK A01 T03260180  RH  042%=      5-min Rain = 0
KST2 141927Z 18020KT 33/18 A2986 RMK A01 T03260180  RH  042%=      5-min Rain = 0
KST2 141928Z 19019KT 33/18 A2986 RMK A01 T03250179  RH  042%=      5-min Rain = 0
KST2 141929Z 19021KT 33/18 A2986 RMK A01 T03250180  RH  042%=      5-min Rain = 0
KST2 141930Z 18021KT 32/18 A2986 RMK A01 T03240180  RH  042%=      5-min Rain = 0
KST2 141931Z 18023KT 32/18 A2986 RMK A01 T03240179  RH  042%=      5-min Rain = 0
KST2 141932Z 18021KT 32/18 A2986 RMK A01 T03240179  RH  042%=      5-min Rain = 0
KST2 141933Z 18018KT 32/18 A2986 RMK A01 T03240180  RH  042%=      5-min Rain = 0
KST2 141934Z 20020KT 33/18 A2986 RMK A01 T03250181  RH  042%=      5-min Rain = 0
KST2 141935Z 19022KT 33/18 A2986 RMK A01 T03260181  RH  042%=      5-min Rain = 0
KST2 141936Z 19020KT 33/18 A2986 RMK A01 T03260180  RH  042%=      5-min Rain = 0
KST2 141937Z 19019KT 33/18 A2986 RMK A01 T03250179  RH  042%=      5-min Rain = 0
KST2 141938Z 20022G30KT 32/18 A2986 RMK A01 T03240180  RH  042%=      5-min Rain = 0
KST2 141939Z 19023G28KT 32/18 A2986 RMK A01 T03240179  RH  042%=      5-min Rain = 0
KST2 141940Z 19019KT 32/18 A2986 RMK A01 T03230179  RH  042%=      5-min Rain = 0
KST2 141941Z 19019KT 32/18 A2986 RMK A01 T03230179  RH  042%=      5-min Rain = 0
KST2 141942Z 20020KT 32/18 A2986 RMK A01 T03230180  RH  042%=      5-min Rain = 0
KST2 141943Z 20022KT 32/18 A2986 RMK A01 T03240179  RH  042%=      5-min Rain = 0
KST2 141944Z 20021G26KT 32/18 A2986 RMK A01 T03240179  RH  042%=      5-min Rain = 0
KST2 141945Z 20021KT 33/18 A2986 RMK A01 T03260180  RH  042%=      5-min Rain = 0
KST2 141946Z 20020KT 33/18 A2986 RMK A01 T03260179  RH  042%=      5-min Rain = 0
KST2 141947Z 19019KT 33/18 A2986 RMK A01 T03270180  RH  042%=      5-min Rain = 0
KST2 141948Z 19023G28KT 33/18 A2986 RMK A01 T03270179  RH  042%=      5-min Rain = 0
KST2 141949Z 19025KT 33/18 A2986 RMK A01 T03270179  RH  041%=      5-min Rain = 0
KST2 141950Z 19023G29KT 33/18 A2986 RMK A01 T03260178  RH  041%=      5-min Rain = 0
KST2 141951Z 20022G27KT 33/18 A2986 RMK A01 T03250178  RH  041%=      5-min Rain = 0
KST2 141952Z 19021KT 33/18 A2986 RMK A01 T03250178  RH  041%=      5-min Rain = 0
KST2 141953Z 19021KT 33/18 A2986 RMK A01 T03260178  RH  042%=      5-min Rain = 0
KST2 141954Z 19020KT 33/18 A2986 RMK A01 T03260178  RH  041%=      5-min Rain = 0
KST2 141955Z 18021KT 33/18 A2986 RMK A01 T03260178  RH  041%=      5-min Rain = 0
KST2 141956Z 18017G22KT 33/18 A2986 RMK A01 T03280181  RH  042%=      5-min Rain = 0
KST2 141957Z 19019KT 33/18 A2986 RMK A01 T03300183  RH  042%=      5-min Rain = 0
KST2 141958Z 18019KT 33/18 A2985 RMK A01 T03330183  RH  041%=      5-min Rain = 0
KST2 141959Z 18017KT 33/19 A2985 RMK A01 T03340185  RH  041%=      5-min Rain = 0
KST2 142000Z 17020KT 34/19 A2985 RMK A01 T03360186  RH  041%=      5-min Rain = 0
KST2 142001Z 18021KT 34/19 A2985 RMK A01 T03380186  RH  041%=      5-min Rain = 0
KST2 142002Z 18018G23KT 34/19 A2985 RMK A01 T03380186  RH  041%=      5-min Rain = 0
KST2 142003Z 19020KT 34/19 A2985 RMK A01 T03380185  RH  041%=      5-min Rain = 0
KST2 142004Z 18019KT 34/19 A2985 RMK A01 T03370185  RH  041%=      5-min Rain = 0
KST2 142005Z 18023KT 34/19 A2985 RMK A01 T03380185  RH  040%=      5-min Rain = 0
KST2 142006Z 19023G28KT 34/18 A2985 RMK A01 T03380184  RH  040%=      5-min Rain = 0
KST2 142007Z 19020KT 34/18 A2985 RMK A01 T03360184  RH  040%=      5-min Rain = 0
KST2 142008Z 19020KT 34/18 A2985 RMK A01 T03360183  RH  040%=      5-min Rain = 0
KST2 142009Z 18018KT 34/18 A2985 RMK A01 T03360184  RH  041%=      5-min Rain = 0
KST2 142010Z 18020KT 34/18 A2985 RMK A01 T03360184  RH  041%=      5-min Rain = 0
KST2 142011Z 20023KT 34/18 A2985 RMK A01 T03370184  RH  041%=      5-min Rain = 0
KST2 142012Z 19020G25KT 34/18 A2985 RMK A01 T03370184  RH  040%=      5-min Rain = 0
KST2 142013Z 18022KT 34/18 A2985 RMK A01 T03370184  RH  041%=      5-min Rain = 0
KST2 142014Z 19019KT 34/19 A2985 RMK A01 T03380185  RH  040%=      5-min Rain = 0
KST2 142015Z 19018KT 34/19 A2985 RMK A01 T03370186  RH  041%=      5-min Rain = 0
KST2 142016Z 20020G25KT 34/19 A2985 RMK A01 T03400187  RH  040%=      5-min Rain = 0
KST2 142017Z 20020KT 34/19 A2985 RMK A01 T03430186  RH  040%=      5-min Rain = 0
KST2 142018Z 19022KT 35/19 A2985 RMK A01 T03450187  RH  040%=      5-min Rain = 0
KST2 142019Z 19020G25KT 35/19 A2985 RMK A01 T03450186  RH  039%=      5-min Rain = 0
KST2 142020Z 19024KT 34/19 A2985 RMK A01 T03440185  RH  039%=      5-min Rain = 0
KST2 142021Z 19027KT 34/18 A2985 RMK A01 T03440184  RH  039%=      5-min Rain = 0
KST2 142022Z 20019G25KT 34/18 A2985 RMK A01 T03430182  RH  039%=      5-min Rain = 0
KST2 142023Z 19021G28KT 34/18 A2984 RMK A01 T03420183  RH  039%=      5-min Rain = 0
KST2 142024Z 20022KT 34/18 A2985 RMK A01 T03440183  RH  039%=      5-min Rain = 0
KST2 142025Z 20024KT 35/18 A2984 RMK A01 T03460183  RH  038%=      5-min Rain = 0
KST2 142026Z 20024KT 35/18 A2985 RMK A01 T03460182  RH  038%=      5-min Rain = 0
KST2 142027Z 20019KT 35/18 A2985 RMK A01 T03450182  RH  038%=      5-min Rain = 0
KST2 142028Z 19020KT 35/18 A2985 RMK A01 T03460183  RH  038%=      5-min Rain = 0
KST2 142029Z 19024G30KT 35/18 A2984 RMK A01 T03470183  RH  038%=      5-min Rain = 0
KST2 142030Z 19024KT 35/18 A2984 RMK A01 T03460180  RH  038%=      5-min Rain = 0
KST2 142031Z 20024KT 35/18 A2984 RMK A01 T03450180  RH  038%=      5-min Rain = 0
KST2 142032Z 19021KT 34/18 A2984 RMK A01 T03440179  RH  038%=      5-min Rain = 0
KST2 142033Z 19018KT 34/18 A2984 RMK A01 T03440180  RH  038%=      5-min Rain = 0
KST2 142034Z 19024G30KT 35/18 A2984 RMK A01 T03460181  RH  038%=      5-min Rain = 0
KST2 142035Z 18022KT 35/18 A2984 RMK A01 T03460180  RH  037%=      5-min Rain = 0
KST2 142036Z 18021KT 34/18 A2984 RMK A01 T03440181  RH  038%=      5-min Rain = 0
KST2 142037Z 18019KT 34/18 A2984 RMK A01 T03440180  RH  038%=      5-min Rain = 0
KST2 142038Z 17019KT 34/18 A2984 RMK A01 T03430180  RH  038%=      5-min Rain = 0
KST2 142039Z 18024KT 34/18 A2984 RMK A01 T03440180  RH  038%=      5-min Rain = 0
KST2 142040Z 19022G27KT 34/18 A2984 RMK A01 T03440180  RH  038%=      5-min Rain = 0
KST2 142041Z 19025KT 34/18 A2984 RMK A01 T03440179  RH  038%=      5-min Rain = 0
KST2 142042Z 19023G28KT 34/18 A2984 RMK A01 T03440178  RH  037%=      5-min Rain = 0
KST2 142043Z 19026KT 34/18 A2984 RMK A01 T03430178  RH  038%=      5-min Rain = 0
KST2 142044Z 19026KT 34/18 A2984 RMK A01 T03420178  RH  038%=      5-min Rain = 0
KST2 142045Z 19022KT 34/18 A2984 RMK A01 T03420178  RH  038%=      5-min Rain = 0
KST2 142046Z 18024KT 34/18 A2984 RMK A01 T03420178  RH  038%=      5-min Rain = 0
KST2 142047Z 18022G27KT 34/18 A2983 RMK A01 T03420178  RH  038%=      5-min Rain = 0
KST2 142048Z 18019KT 34/18 A2984 RMK A01 T03430179  RH  038%=      5-min Rain = 0
KST2 142049Z 19019KT 34/18 A2984 RMK A01 T03440180  RH  038%=      5-min Rain = 0
KST2 142050Z 20018KT 35/18 A2984 RMK A01 T03460182  RH  038%=      5-min Rain = 0
KST2 142051Z 19020KT 35/18 A2984 RMK A01 T03470182  RH  038%=      5-min Rain = 0
KST2 142052Z 20021KT 35/18 A2984 RMK A01 T03470182  RH  038%=      5-min Rain = 0
KST2 142053Z 18023KT 35/18 A2983 RMK A01 T03470181  RH  037%=      5-min Rain = 0
KST2 142054Z 18022KT 35/18 A2983 RMK A01 T03470180  RH  037%=      5-min Rain = 0
KST2 142055Z 17020KT 35/18 A2983 RMK A01 T03460180  RH  038%=      5-min Rain = 0
KST2 142056Z 17020KT 35/18 A2984 RMK A01 T03460180  RH  038%=      5-min Rain = 0
KST2 142057Z 17022KT 35/18 A2983 RMK A01 T03470181  RH  037%=      5-min Rain = 0
KST2 142058Z 17020KT 35/18 A2983 RMK A01 T03470180  RH  037%=      5-min Rain = 0
KST2 142059Z 19022G27KT 35/18 A2983 RMK A01 T03450180  RH  038%=      5-min Rain = 0
KST2 142100Z 18022KT 35/18 A2983 RMK A01 T03460180  RH  037%=      5-min Rain = 0
KST2 142101Z 18025KT 35/18 A2983 RMK A01 T03450179  RH  037%=      5-min Rain = 0
KST2 142102Z 19022G27KT 34/18 A2983 RMK A01 T03440178  RH  037%=      5-min Rain = 0
KST2 142103Z 18019KT 34/18 A2983 RMK A01 T03430178  RH  038%=      5-min Rain = 0
KST2 142104Z 19019G24KT 34/18 A2983 RMK A01 T03440180  RH  038%=      5-min Rain = 0
KST2 142105Z 19017KT 35/18 A2983 RMK A01 T03460180  RH  038%=      5-min Rain = 0
KST2 142106Z 19017KT 35/18 A2983 RMK A01 T03460182  RH  038%=      5-min Rain = 0
KST2 142107Z 20021G27KT 35/18 A2983 RMK A01 T03490184  RH  038%=      5-min Rain = 0
KST2 142108Z 19021KT 35/18 A2983 RMK A01 T03500183  RH  037%=      5-min Rain = 0
KST2 142109Z 18023KT 35/18 A2983 RMK A01 T03500183  RH  037%=      5-min Rain = 0
KST2 142110Z 18022G27KT 35/18 A2983 RMK A01 T03480182  RH  038%=      5-min Rain = 0
KST2 142111Z 19021G27KT 35/18 A2983 RMK A01 T03460181  RH  038%=      5-min Rain = 0
KST2 142112Z 19020G25KT 35/18 A2983 RMK A01 T03460182  RH  038%=      5-min Rain = 0
KST2 142113Z 17021G27KT 35/18 A2983 RMK A01 T03470182  RH  038%=      5-min Rain = 0
KST2 142114Z 17021KT 35/18 A2983 RMK A01 T03480183  RH  038%=      5-min Rain = 0
KST2 142115Z 18024KT 35/18 A2982 RMK A01 T03480182  RH  037%=      5-min Rain = 0
KST2 142116Z 18024KT 35/18 A2983 RMK A01 T03470180  RH  037%=      5-min Rain = 0
KST2 142117Z 19019KT 35/18 A2983 RMK A01 T03460180  RH  038%=      5-min Rain = 0
KST2 142118Z 18021KT 35/18 A2983 RMK A01 T03450182  RH  038%=      5-min Rain = 0
KST2 142119Z 18020KT 35/18 A2983 RMK A01 T03450181  RH  038%=      5-min Rain = 0
KST2 142120Z 19020KT 35/18 A2983 RMK A01 T03450182  RH  038%=      5-min Rain = 0
KST2 142121Z 19019KT 35/18 A2983 RMK A01 T03460182  RH  038%=      5-min Rain = 0
KST2 142122Z 20018KT 35/18 A2983 RMK A01 T03460182  RH  038%=      5-min Rain = 0
KST2 142123Z 19018KT 35/18 A2983 RMK A01 T03460183  RH  038%=      5-min Rain = 0
KST2 142124Z 20019KT 35/18 A2983 RMK A01 T03480184  RH  038%=      5-min Rain = 0
KST2 142125Z 20022G27KT 35/18 A2983 RMK A01 T03480184  RH  038%=      5-min Rain = 0
KST2 142126Z 19020KT 35/18 A2983 RMK A01 T03480184  RH  038%=      5-min Rain = 0
KST2 142127Z 19018KT 35/18 A2983 RMK A01 T03470184  RH  038%=      5-min Rain = 0
KST2 142128Z 19019KT 35/19 A2982 RMK A01 T03470185  RH  038%=      5-min Rain = 0
KST2 142129Z 19023G29KT 35/18 A2982 RMK A01 T03460184  RH  038%=      5-min Rain = 0
KST2 142130Z 19018G23KT 35/18 A2982 RMK A01 T03460184  RH  038%=      5-min Rain = 0
KST2 142131Z 18016KT 35/19 A2982 RMK A01 T03460185  RH  039%=      5-min Rain = 0
KST2 142132Z 18015G20KT 35/19 A2982 RMK A01 T03470186  RH  039%=      5-min Rain = 0
KST2 142133Z 19019KT 35/19 A2982 RMK A01 T03480187  RH  039%=      5-min Rain = 0
KST2 142134Z 17022KT 35/19 A2982 RMK A01 T03480187  RH  039%=      5-min Rain = 0
KST2 142135Z 18023KT 35/19 A2982 RMK A01 T03480188  RH  039%=      5-min Rain = 0
KST2 142136Z 19022KT 35/19 A2982 RMK A01 T03480187  RH  039%=      5-min Rain = 0
KST2 142137Z 20024KT 35/19 A2982 RMK A01 T03480185  RH  038%=      5-min Rain = 0
KST2 142138Z 20024KT 35/18 A2982 RMK A01 T03470184  RH  038%=      5-min Rain = 0
KST2 142139Z 20021KT 35/18 A2983 RMK A01 T03470184  RH  038%=      5-min Rain = 0
KST2 142140Z 19021G26KT 35/18 A2982 RMK A01 T03480184  RH  038%=      5-min Rain = 0
KST2 142141Z 19020KT 35/18 A2983 RMK A01 T03480184  RH  038%=      5-min Rain = 0
KST2 142142Z 20022KT 35/18 A2982 RMK A01 T03470183  RH  038%=      5-min Rain = 0
KST2 142143Z 19018KT 35/18 A2983 RMK A01 T03470184  RH  038%=      5-min Rain = 0
KST2 142144Z 18019KT 35/19 A2982 RMK A01 T03470186  RH  039%=      5-min Rain = 0
KST2 142145Z 19017G23KT 35/19 A2982 RMK A01 T03480188  RH  039%=      5-min Rain = 0
KST2 142146Z 19017KT 35/19 A2982 RMK A01 T03500190  RH  039%=      5-min Rain = 0
KST2 142147Z 19025KT 35/19 A2982 RMK A01 T03500189  RH  039%=      5-min Rain = 0
KST2 142148Z 18023KT 35/19 A2982 RMK A01 T03490186  RH  038%=      5-min Rain = 0
KST2 142149Z 18022KT 35/19 A2982 RMK A01 T03460186  RH  039%=      5-min Rain = 0
KST2 142150Z 18020KT 35/19 A2982 RMK A01 T03460186  RH  039%=      5-min Rain = 0
KST2 142151Z 18019G24KT 35/19 A2982 RMK A01 T03450186  RH  039%=      5-min Rain = 0
KST2 142152Z 19019KT 35/19 A2982 RMK A01 T03450186  RH  039%=      5-min Rain = 0
KST2 142153Z 19020KT 35/19 A2982 RMK A01 T03450186  RH  039%=      5-min Rain = 0
KST2 142154Z 18019G24KT 34/19 A2982 RMK A01 T03440186  RH  039%=      5-min Rain = 0
KST2 142155Z 17019G25KT 35/19 A2982 RMK A01 T03450187  RH  039%=      5-min Rain = 0
KST2 142156Z 18022KT 35/19 A2982 RMK A01 T03450186  RH  039%=      5-min Rain = 0
KST2 142157Z 17025KT 35/19 A2982 RMK A01 T03450186  RH  039%=      5-min Rain = 0
KST2 142158Z 18022KT 35/19 A2982 RMK A01 T03450186  RH  039%=      5-min Rain = 0
KST2 142159Z 17018KT 34/19 A2982 RMK A01 T03440186  RH  039%=      5-min Rain = 0
KST2 142200Z 18020G25KT 34/19 A2982 RMK A01 T03430185  RH  039%=      5-min Rain = 0
KST2 142201Z 17020G26KT 34/19 A2981 RMK A01 T03440186  RH  039%=      5-min Rain = 0
KST2 142202Z 19022KT 35/19 A2982 RMK A01 T03450188  RH  040%=      5-min Rain = 0
KST2 142203Z 19022KT 35/19 A2982 RMK A01 T03460188  RH  039%=      5-min Rain = 0
KST2 142204Z 18019KT 35/19 A2981 RMK A01 T03460187  RH  039%=      5-min Rain = 0
KST2 142205Z 19020G29KT 35/19 A2981 RMK A01 T03450187  RH  039%=      5-min Rain = 0
KST2 142206Z 19020G25KT 34/19 A2981 RMK A01 T03440187  RH  039%=      5-min Rain = 0
KST2 142207Z 18022KT 35/19 A2981 RMK A01 T03450188  RH  040%=      5-min Rain = 0
KST2 142208Z 18021KT 35/19 A2981 RMK A01 T03460188  RH  039%=      5-min Rain = 0
KST2 142209Z 18021KT 35/19 A2981 RMK A01 T03450188  RH  039%=      5-min Rain = 0
KST2 142210Z 18022G28KT 35/19 A2981 RMK A01 T03460188  RH  039%=      5-min Rain = 0
KST2 142211Z 18023KT 35/19 A2981 RMK A01 T03460188  RH  039%=      5-min Rain = 0
KST2 142212Z 18025G31KT 35/19 A2981 RMK A01 T03450186  RH  039%=      5-min Rain = 0
KST2 142213Z 18021KT 34/19 A2981 RMK A01 T03430186  RH  039%=      5-min Rain = 0
KST2 142214Z 18019KT 34/19 A2981 RMK A01 T03430186  RH  040%=      5-min Rain = 0
KST2 142215Z 18019G24KT 35/19 A2981 RMK A01 T03450188  RH  040%=      5-min Rain = 0
KST2 142216Z 18023KT 35/19 A2981 RMK A01 T03460188  RH  039%=      5-min Rain = 0
KST2 142217Z 18021KT 35/19 A2981 RMK A01 T03460187  RH  039%=      5-min Rain = 0
KST2 142218Z 19025KT 35/19 A298 RMK A01 T03450186  RH  039%=      5-min Rain = 0
KST2 142219Z 18021G26KT 35/19 A2981 RMK A01 T03450186  RH  039%=      5-min Rain = 0
KST2 142220Z 19022KT 35/19 A2981 RMK A01 T03450186  RH  039%=      5-min Rain = 0
KST2 142221Z 18022KT 35/19 A2981 RMK A01 T03450185  RH  039%=      5-min Rain = 0
KST2 142222Z 18022KT 35/19 A298 RMK A01 T03460186  RH  039%=      5-min Rain = 0
KST2 142223Z 17021KT 35/19 A298 RMK A01 T03450186  RH  039%=      5-min Rain = 0
KST2 142224Z 18019KT 35/19 A2981 RMK A01 T03450186  RH  039%=      5-min Rain = 0
KST2 142225Z 19021KT 35/19 A2981 RMK A01 T03460186  RH  039%=      5-min Rain = 0
KST2 142226Z 19019KT 35/19 A298 RMK A01 T03460185  RH  039%=      5-min Rain = 0
KST2 142227Z 18020KT 35/19 A298 RMK A01 T03470185  RH  039%=      5-min Rain = 0
KST2 142228Z 18025G31KT 35/18 A298 RMK A01 T03470184  RH  038%=      5-min Rain = 0
KST2 142229Z 18023KT 35/18 A298 RMK A01 T03450183  RH  038%=      5-min Rain = 0
KST2 142230Z 19024G30KT 35/18 A298 RMK A01 T03450183  RH  039%=      5-min Rain = 0
KST2 142231Z 20023KT 35/18 A298 RMK A01 T03450184  RH  039%=      5-min Rain = 0
KST2 142232Z 19022G27KT 35/18 A298 RMK A01 T03450182  RH  038%=      5-min Rain = 0
KST2 142233Z 19020KT 35/18 A298 RMK A01 T03450183  RH  038%=      5-min Rain = 0
KST2 142234Z 19020G26KT 35/18 A298 RMK A01 T03450184  RH  039%=      5-min Rain = 0
KST2 142235Z 19024KT 35/19 A298 RMK A01 T03450185  RH  039%=      5-min Rain = 0
KST2 142236Z 19023KT 35/19 A298 RMK A01 T03450185  RH  039%=      5-min Rain = 0
KST2 142237Z 18023KT 34/19 A298 RMK A01 T03440185  RH  039%=      5-min Rain = 0
KST2 142238Z 18019KT 34/19 A298 RMK A01 T03420185  RH  039%=      5-min Rain = 0
KST2 142239Z 18019KT 34/19 A298 RMK A01 T03420185  RH  040%=      5-min Rain = 0
KST2 142240Z 18021KT 34/19 A298 RMK A01 T03420185  RH  039%=      5-min Rain = 0
KST2 142241Z 17021KT 34/19 A298 RMK A01 T03430186  RH  040%=      5-min Rain = 0
KST2 142242Z 18021KT 34/19 A298 RMK A01 T03430186  RH  039%=      5-min Rain = 0
KST2 142243Z 18022KT 34/19 A298 RMK A01 T03430185  RH  039%=      5-min Rain = 0
KST2 142244Z 18020KT 34/18 A298 RMK A01 T03420184  RH  039%=      5-min Rain = 0
KST2 142245Z 18020KT 34/18 A298 RMK A01 T03410183  RH  039%=      5-min Rain = 0
KST2 142246Z 18016G23KT 34/18 A298 RMK A01 T03410184  RH  039%=      5-min Rain = 0
KST2 142247Z 18017G22KT 34/19 A298 RMK A01 T03420185  RH  040%=      5-min Rain = 0
KST2 142248Z 17018G26KT 34/19 A298 RMK A01 T03430185  RH  039%=      5-min Rain = 0
KST2 142249Z 19023G28KT 34/19 A298 RMK A01 T03440185  RH  039%=      5-min Rain = 0
KST2 142250Z 18021KT 34/18 A298 RMK A01 T03430183  RH  039%=      5-min Rain = 0
KST2 142251Z 18021KT 34/18 A298 RMK A01 T03410183  RH  039%=      5-min Rain = 0
KST2 142252Z 17022G28KT 34/18 A298 RMK A01 T03420184  RH  039%=      5-min Rain = 0
KST2 142253Z 18024KT 34/18 A2979 RMK A01 T03410183  RH  039%=      5-min Rain = 0
KST2 142254Z 18020G26KT 34/18 A298 RMK A01 T03410184  RH  039%=      5-min Rain = 0
KST2 142255Z 18025G31KT 34/18 A2979 RMK A01 T03420184  RH  039%=      5-min Rain = 0
KST2 142256Z 19023KT 34/18 A2979 RMK A01 T03410183  RH  039%=      5-min Rain = 0
KST2 142257Z 18023G28KT 34/18 A2979 RMK A01 T03390182  RH  039%=      5-min Rain = 0
KST2 142258Z 18022KT 34/18 A2979 RMK A01 T03390182  RH  039%=      5-min Rain = 0
KST2 142259Z 18022KT 34/18 A2979 RMK A01 T03390182  RH  039%=      5-min Rain = 0
KST2 142300Z 17018G24KT 34/18 A2979 RMK A01 T03380182  RH  040%=      5-min Rain = 0
KST2 142301Z 17018G24KT 34/18 A2979 RMK A01 T03400184  RH  040%=      5-min Rain = 0
KST2 142302Z 18021KT 34/19 A2979 RMK A01 T03410185  RH  040%=      5-min Rain = 0
KST2 142303Z 17020KT 34/19 A2979 RMK A01 T03410185  RH  040%=      5-min Rain = 0
KST2 142304Z 17021KT 34/19 A2979 RMK A01 T03400185  RH  040%=      5-min Rain = 0
KST2 142305Z 17023G28KT 34/19 A2979 RMK A01 T03400185  RH  040%=      5-min Rain = 0
KST2 142306Z 18021G26KT 34/19 A2979 RMK A01 T03400185  RH  040%=      5-min Rain = 0
KST2 142307Z 18022G27KT 34/18 A2979 RMK A01 T03400184  RH  040%=      5-min Rain = 0
KST2 142308Z 17019G24KT 34/18 A2979 RMK A01 T03390184  RH  040%=      5-min Rain = 0
KST2 142309Z 17017G23KT 34/19 A2979 RMK A01 T03390185  RH  040%=      5-min Rain = 0
KST2 142310Z 18022KT 34/19 A2979 RMK A01 T03390185  RH  040%=      5-min Rain = 0
KST2 142311Z 18021KT 34/19 A2979 RMK A01 T03390185  RH  040%=      5-min Rain = 0
KST2 142312Z 18021KT 34/19 A2979 RMK A01 T03390185  RH  040%=      5-min Rain = 0
KST2 142313Z 17023KT 34/18 A2979 RMK A01 T03390184  RH  040%=      5-min Rain = 0
KST2 142314Z 17018KT 34/18 A2979 RMK A01 T03380184  RH  040%=      5-min Rain = 0
KST2 142315Z 17019KT 34/19 A2979 RMK A01 T03380185  RH  040%=      5-min Rain = 0
KST2 142316Z 18022KT 34/19 A2979 RMK A01 T03390185  RH  040%=      5-min Rain = 0
KST2 142317Z 18021KT 34/19 A2979 RMK A01 T03390185  RH  040%=      5-min Rain = 0
KST2 142318Z 17019KT 34/19 A2979 RMK A01 T03390185  RH  040%=      5-min Rain = 0
KST2 142319Z 17018G23KT 34/19 A2979 RMK A01 T03390186  RH  041%=      5-min Rain = 0
KST2 142320Z 17021KT 34/19 A2979 RMK A01 T03390186  RH  040%=      5-min Rain = 0
KST2 142321Z 17022KT 34/19 A2979 RMK A01 T03380185  RH  040%=      5-min Rain = 0
KST2 142322Z 17021KT 34/19 A2979 RMK A01 T03370185  RH  041%=      5-min Rain = 0
KST2 142323Z 17018G24KT 34/19 A2979 RMK A01 T03360185  RH  041%=      5-min Rain = 0
KST2 142324Z 18018KT 34/19 A2979 RMK A01 T03360186  RH  041%=      5-min Rain = 0
KST2 142325Z 18018G23KT 34/19 A2979 RMK A01 T03370186  RH  041%=      5-min Rain = 0
KST2 142326Z 17018KT 34/19 A2979 RMK A01 T03370186  RH  041%=      5-min Rain = 0
KST2 142327Z 17019KT 34/19 A2979 RMK A01 T03370186  RH  041%=      5-min Rain = 0
KST2 142328Z 17018KT 34/19 A2979 RMK A01 T03370186  RH  041%=      5-min Rain = 0
KST2 142329Z 18020KT 34/19 A2979 RMK A01 T03360186  RH  041%=      5-min Rain = 0
KST2 142330Z 17020KT 34/19 A2979 RMK A01 T03360186  RH  041%=      5-min Rain = 0
KST2 142331Z 17019G24KT 34/19 A2979 RMK A01 T03360186  RH  041%=      5-min Rain = 0
KST2 142332Z 17020KT 34/19 A2979 RMK A01 T03360186  RH  041%=      5-min Rain = 0
KST2 142333Z 16021KT 34/19 A2979 RMK A01 T03350185  RH  041%=      5-min Rain = 0
KST2 142334Z 17020KT 33/19 A2979 RMK A01 T03340185  RH  041%=      5-min Rain = 0
KST2 142335Z 17020KT 33/19 A2979 RMK A01 T03340185  RH  041%=      5-min Rain = 0
KST2 142336Z 17016KT 34/19 A2979 RMK A01 T03350186  RH  042%=      5-min Rain = 0
KST2 142337Z 17020KT 34/19 A2979 RMK A01 T03350187  RH  042%=      5-min Rain = 0
KST2 142338Z 17019KT 34/19 A2978 RMK A01 T03350186  RH  041%=      5-min Rain = 0
KST2 142339Z 18021KT 33/19 A2978 RMK A01 T03340186  RH  042%=      5-min Rain = 0
KST2 142340Z 17019KT 33/19 A2978 RMK A01 T03340186  RH  042%=      5-min Rain = 0
KST2 142341Z 17019KT 33/19 A2978 RMK A01 T03330185  RH  042%=      5-min Rain = 0
KST2 142342Z 17020KT 33/19 A2979 RMK A01 T03330185  RH  042%=      5-min Rain = 0
KST2 142343Z 17021KT 33/19 A2979 RMK A01 T03330185  RH  042%=      5-min Rain = 0
KST2 142344Z 17020KT 33/19 A2979 RMK A01 T03330185  RH  042%=      5-min Rain = 0
KST2 142345Z 17018KT 33/19 A2979 RMK A01 T03330185  RH  042%=      5-min Rain = 0
KST2 142346Z 17020KT 33/19 A2979 RMK A01 T03330185  RH  042%=      5-min Rain = 0
KST2 142347Z 17020KT 33/19 A2979 RMK A01 T03320185  RH  042%=      5-min Rain = 0
KST2 142348Z 16018G23KT 33/19 A2979 RMK A01 T03320185  RH  042%=      5-min Rain = 0
KST2 142349Z 17018KT 33/19 A2979 RMK A01 T03320186  RH  042%=      5-min Rain = 0
KST2 142350Z 17018KT 33/19 A2979 RMK A01 T03320186  RH  042%=      5-min Rain = 0
KST2 142351Z 17019KT 33/19 A2979 RMK A01 T03320186  RH  042%=      5-min Rain = 0
KST2 142352Z 18017KT 33/19 A2979 RMK A01 T03310185  RH  042%=      5-min Rain = 0
KST2 142353Z 18016G22KT 33/19 A2979 RMK A01 T03310187  RH  042%=      5-min Rain = 0
KST2 142354Z 18020KT 33/19 A2979 RMK A01 T03320187  RH  042%=      5-min Rain = 0
KST2 142355Z 19020KT 33/19 A2979 RMK A01 T03320186  RH  042%=      5-min Rain = 0
KST2 142356Z 19019KT 33/19 A2979 RMK A01 T03310186  RH  042%=      5-min Rain = 0
KST2 142357Z 18020KT 33/19 A2979 RMK A01 T03310186  RH  042%=      5-min Rain = 0
KST2 142358Z 18017KT 33/19 A2979 RMK A01 T03310186  RH  042%=      5-min Rain = 0
KST2 142359Z 18018KT 33/19 A2979 RMK A01 T03310186  RH  043%=      5-min Rain = 0
KST2 150000Z 18018KT 33/19 A2979 RMK A01 T03300186  RH  042%=      5-min Rain = 0
KST2 150001Z 17017KT 33/19 A2979 RMK A01 T03300186  RH  042%=      5-min Rain = 0
KST2 150002Z 18020G25KT 33/19 A2979 RMK A01 T03300186  RH  042%=      5-min Rain = 0
KST2 150003Z 18022KT 33/19 A2979 RMK A01 T03300186  RH  043%=      5-min Rain = 0
KST2 150004Z 18019G24KT 33/19 A2979 RMK A01 T03290185  RH  042%=      5-min Rain = 0
KST2 150005Z 18021KT 33/19 A2979 RMK A01 T03290185  RH  043%=      5-min Rain = 0
KST2 150006Z 18020KT 33/19 A2979 RMK A01 T03290185  RH  043%=      5-min Rain = 0
KST2 150007Z 18019KT 33/19 A2979 RMK A01 T03290186  RH  043%=      5-min Rain = 0
KST2 150008Z 18019G26KT 33/19 A2979 RMK A01 T03290186  RH  043%=      5-min Rain = 0
KST2 150009Z 18023KT 33/19 A2979 RMK A01 T03290185  RH  042%=      5-min Rain = 0
KST2 150010Z 18021KT 33/18 A2979 RMK A01 T03290184  RH  042%=      5-min Rain = 0
KST2 150011Z 18019G25KT 33/18 A2979 RMK A01 T03280184  RH  042%=      5-min Rain = 0
KST2 150012Z 18020KT 33/18 A2979 RMK A01 T03280184  RH  042%=      5-min Rain = 0
KST2 150013Z 18019KT 33/18 A2979 RMK A01 T03280184  RH  042%=      5-min Rain = 0
KST2 150014Z 18016KT 33/18 A2979 RMK A01 T03280184  RH  042%=      5-min Rain = 0
KST2 150015Z 18019KT 33/18 A2979 RMK A01 T03280184  RH  042%=      5-min Rain = 0
KST2 150016Z 18018G23KT 33/18 A2979 RMK A01 T03280184  RH  043%=      5-min Rain = 0
KST2 150017Z 18019G24KT 33/18 A2979 RMK A01 T03280184  RH  043%=      5-min Rain = 0
KST2 150018Z 18019KT 33/18 A2979 RMK A01 T03280184  RH  043%=      5-min Rain = 0
KST2 150019Z 18021KT 33/19 A2979 RMK A01 T03280185  RH  043%=      5-min Rain = 0
KST2 150020Z 18020KT 33/18 A2979 RMK A01 T03280184  RH  043%=      5-min Rain = 0
KST2 150021Z 18018KT 33/19 A2979 RMK A01 T03280185  RH  043%=      5-min Rain = 0
KST2 150022Z 19017KT 33/19 A2979 RMK A01 T03280185  RH  043%=      5-min Rain = 0
KST2 150023Z 19017KT 33/19 A2979 RMK A01 T03280185  RH  043%=      5-min Rain = 0
KST2 150024Z 19015G21KT 33/19 A2979 RMK A01 T03280185  RH  043%=      5-min Rain = 0
KST2 150025Z 19019KT 33/19 A2979 RMK A01 T03270185  RH  043%=      5-min Rain = 0
KST2 150026Z 18017KT 33/19 A2979 RMK A01 T03270185  RH  043%=      5-min Rain = 0
KST2 150027Z 18019G24KT 33/19 A2979 RMK A01 T03270185  RH  043%=      5-min Rain = 0
KST2 150028Z 18015KT 33/18 A2979 RMK A01 T03260184  RH  043%=      5-min Rain = 0
KST2 150029Z 18019G24KT 33/18 A2979 RMK A01 T03260184  RH  043%=      5-min Rain = 0
KST2 150030Z 18018KT 33/18 A2979 RMK A01 T03260184  RH  043%=      5-min Rain = 0
KST2 150031Z 18016KT 33/18 A2979 RMK A01 T03250184  RH  043%=      5-min Rain = 0
KST2 150032Z 18018G23KT 33/18 A2979 RMK A01 T03250184  RH  043%=      5-min Rain = 0
KST2 150033Z 18021KT 33/18 A2979 RMK A01 T03250183  RH  043%=      5-min Rain = 0
KST2 150034Z 18019KT 33/18 A2979 RMK A01 T03250183  RH  043%=      5-min Rain = 0
KST2 150035Z 18019G24KT 33/18 A2979 RMK A01 T03250183  RH  043%=      5-min Rain = 0
KST2 150036Z 18020KT 33/18 A2979 RMK A01 T03250183  RH  043%=      5-min Rain = 0
KST2 150037Z 18018G23KT 33/18 A2979 RMK A01 T03250182  RH  043%=      5-min Rain = 0
KST2 150038Z 18020KT 33/18 A2979 RMK A01 T03250183  RH  043%=      5-min Rain = 0
KST2 150039Z 17021KT 33/18 A2979 RMK A01 T03250182  RH  043%=      5-min Rain = 0
KST2 150040Z 18018KT 32/18 A2979 RMK A01 T03240182  RH  043%=      5-min Rain = 0
KST2 150041Z 18016KT 33/18 A2979 RMK A01 T03250182  RH  043%=      5-min Rain = 0
KST2 150042Z 18018KT 32/18 A2979 RMK A01 T03240182  RH  043%=      5-min Rain = 0
KST2 150043Z 18017KT 32/18 A2979 RMK A01 T03240182  RH  043%=      5-min Rain = 0
KST2 150044Z 18014KT 32/18 A2979 RMK A01 T03240182  RH  043%=      5-min Rain = 0
KST2 150045Z 19015KT 32/18 A2979 RMK A01 T03230183  RH  043%=      5-min Rain = 0
KST2 150046Z 19017KT 32/18 A2979 RMK A01 T03230183  RH  043%=      5-min Rain = 0
KST2 150047Z 18015KT 32/18 A2979 RMK A01 T03230182  RH  043%=      5-min Rain = 0
KST2 150048Z 18015G20KT 32/18 A2979 RMK A01 T03230183  RH  043%=      5-min Rain = 0
KST2 150049Z 18017KT 32/18 A2979 RMK A01 T03230183  RH  043%=      5-min Rain = 0
KST2 150050Z 18017KT 32/18 A2979 RMK A01 T03220182  RH  043%=      5-min Rain = 0
KST2 150051Z 18018KT 32/18 A2979 RMK A01 T03220182  RH  043%=      5-min Rain = 0
KST2 150052Z 18016KT 32/18 A2979 RMK A01 T03210182  RH  044%=      5-min Rain = 0
KST2 150053Z 18014KT 32/18 A2979 RMK A01 T03210182  RH  044%=      5-min Rain = 0
KST2 150054Z 17013KT 32/18 A2979 RMK A01 T03200182  RH  044%=      5-min Rain = 0
KST2 150055Z 18014KT 32/18 A2979 RMK A01 T03200182  RH  044%=      5-min Rain = 0
KST2 150056Z 18014KT 32/18 A2979 RMK A01 T03190182  RH  044%=      5-min Rain = 0
KST2 150057Z 18016KT 32/18 A2979 RMK A01 T03180182  RH  044%=      5-min Rain = 0
KST2 150058Z 17014KT 32/18 A2979 RMK A01 T03180182  RH  045%=      5-min Rain = 0
KST2 150059Z 18015KT 32/18 A2979 RMK A01 T03170183  RH  045%=      5-min Rain = 0
KST2 150100Z 17015KT 32/18 A2979 RMK A01 T03170183  RH  045%=      5-min Rain = 0
KST2 150101Z 17013KT 32/18 A2979 RMK A01 T03170183  RH  045%=      5-min Rain = 0
KST2 150102Z 17012KT 32/18 A2979 RMK A01 T03160183  RH  045%=      5-min Rain = 0
KST2 150103Z 17012KT 32/18 A2979 RMK A01 T03150183  RH  045%=      5-min Rain = 0
KST2 150104Z 17013KT 32/18 A2979 RMK A01 T03150183  RH  046%=      5-min Rain = 0
KST2 150105Z 17014KT 31/18 A2979 RMK A01 T03140183  RH  046%=      5-min Rain = 0
KST2 150106Z 18013KT 31/18 A2979 RMK A01 T03140183  RH  046%=      5-min Rain = 0
KST2 150107Z 17013KT 31/18 A2979 RMK A01 T03140184  RH  046%=      5-min Rain = 0
KST2 150108Z 18013KT 31/18 A2979 RMK A01 T03140184  RH  046%=      5-min Rain = 0
KST2 150109Z 17012KT 31/18 A2979 RMK A01 T03130184  RH  046%=      5-min Rain = 0
KST2 150110Z 17013KT 31/19 A2979 RMK A01 T03140185  RH  046%=      5-min Rain = 0
KST2 150111Z 18014KT 31/19 A2979 RMK A01 T03130185  RH  046%=      5-min Rain = 0
KST2 150112Z 18014KT 31/19 A2979 RMK A01 T03130185  RH  047%=      5-min Rain = 0
KST2 150113Z 18014KT 31/19 A2979 RMK A01 T03120185  RH  047%=      5-min Rain = 0
KST2 150114Z 18013KT 31/19 A298 RMK A01 T03120185  RH  047%=      5-min Rain = 0
KST2 150115Z 17011KT 31/19 A298 RMK A01 T03120185  RH  047%=      5-min Rain = 0
KST2 150116Z 18012KT 31/19 A2979 RMK A01 T03120185  RH  047%=      5-min Rain = 0
KST2 150117Z 17013KT 31/19 A2979 RMK A01 T03110185  RH  047%=      5-min Rain = 0
KST2 150118Z 17013KT 31/19 A2979 RMK A01 T03100185  RH  047%=      5-min Rain = 0
KST2 150119Z 18013KT 31/19 A2979 RMK A01 T03100185  RH  047%=      5-min Rain = 0
KST2 150120Z 17014KT 31/19 A2979 RMK A01 T03100186  RH  048%=      5-min Rain = 0
KST2 150121Z 17014KT 31/19 A2979 RMK A01 T03090185  RH  048%=      5-min Rain = 0
KST2 150122Z 17012KT 31/19 A2979 RMK A01 T03090186  RH  048%=      5-min Rain = 0
KST2 150123Z 17012KT 31/19 A2979 RMK A01 T03080186  RH  048%=      5-min Rain = 0
KST2 150124Z 17013KT 31/19 A2979 RMK A01 T03080186  RH  048%=      5-min Rain = 0
KST2 150125Z 17014KT 31/19 A2979 RMK A01 T03080186  RH  048%=      5-min Rain = 0
KST2 150126Z 17015KT 31/19 A2979 RMK A01 T03070186  RH  048%=      5-min Rain = 0
KST2 150127Z 17013KT 31/19 A2979 RMK A01 T03070187  RH  049%=      5-min Rain = 0
KST2 150128Z 17015KT 31/19 A2979 RMK A01 T03060186  RH  049%=      5-min Rain = 0
KST2 150129Z 17014KT 31/19 A2979 RMK A01 T03060187  RH  049%=      5-min Rain = 0
KST2 150130Z 17014KT 31/19 A2979 RMK A01 T03050187  RH  049%=      5-min Rain = 0
KST2 150131Z 17014KT 31/19 A2979 RMK A01 T03050187  RH  049%=      5-min Rain = 0
KST2 150132Z 17015KT 30/19 A2979 RMK A01 T03040187  RH  049%=      5-min Rain = 0
KST2 150133Z 17014KT 30/19 A2979 RMK A01 T03040187  RH  050%=      5-min Rain = 0
KST2 150134Z 17015KT 30/19 A2979 RMK A01 T03040187  RH  050%=      5-min Rain = 0
KST2 150135Z 17014KT 30/19 A2979 RMK A01 T03030187  RH  050%=      5-min Rain = 0
KST2 150136Z 17013KT 30/19 A2979 RMK A01 T03030187  RH  050%=      5-min Rain = 0
KST2 150137Z 17014KT 30/19 A2979 RMK A01 T03020187  RH  050%=      5-min Rain = 0
KST2 150138Z 17015KT 30/19 A2979 RMK A01 T03020187  RH  050%=      5-min Rain = 0
KST2 150139Z 17014KT 30/19 A2979 RMK A01 T03020187  RH  050%=      5-min Rain = 0
KST2 150140Z 17013KT 30/19 A2979 RMK A01 T03020187  RH  050%=      5-min Rain = 0
KST2 150141Z 17014KT 30/19 A2979 RMK A01 T03020187  RH  050%=      5-min Rain = 0
KST2 150142Z 17014KT 30/19 A2979 RMK A01 T03010187  RH  051%=      5-min Rain = 0
KST2 150143Z 17013KT 30/19 A2979 RMK A01 T03010188  RH  051%=      5-min Rain = 0
KST2 150144Z 17012KT 30/19 A2979 RMK A01 T03010187  RH  051%=      5-min Rain = 0
KST2 150145Z 17013KT 30/19 A2979 RMK A01 T03000187  RH  051%=      5-min Rain = 0
KST2 150146Z 17013KT 30/19 A2979 RMK A01 T03000187  RH  051%=      5-min Rain = 0
KST2 150147Z 17014KT 30/19 A2979 RMK A01 T03000187  RH  051%=      5-min Rain = 0
KST2 150148Z 17013KT 30/19 A2979 RMK A01 T02990187  RH  051%=      5-min Rain = 0
KST2 150149Z 17012KT 30/19 A2979 RMK A01 T02990188  RH  051%=      5-min Rain = 0
KST2 150150Z 17014KT 30/19 A2979 RMK A01 T02990188  RH  051%=      5-min Rain = 0
KST2 150151Z 17013KT 30/19 A2979 RMK A01 T02980188  RH  052%=      5-min Rain = 0
KST2 150152Z 17015KT 30/19 A2979 RMK A01 T02980188  RH  052%=      5-min Rain = 0
KST2 150153Z 17014KT 30/19 A2979 RMK A01 T02980188  RH  052%=      5-min Rain = 0
KST2 150154Z 17012KT 30/19 A2979 RMK A01 T02980188  RH  052%=      5-min Rain = 0
KST2 150155Z 17014KT 30/19 A2979 RMK A01 T02980189  RH  052%=      5-min Rain = 0
KST2 150156Z 17012KT 30/19 A2979 RMK A01 T02970189  RH  052%=      5-min Rain = 0
KST2 150157Z 17013KT 30/19 A2979 RMK A01 T02970189  RH  052%=      5-min Rain = 0
KST2 150158Z 18012KT 30/19 A2979 RMK A01 T02970188  RH  052%=      5-min Rain = 0
KST2 150159Z 17013KT 30/19 A2979 RMK A01 T02970189  RH  052%=      5-min Rain = 0
KST2 150200Z 18011KT 30/19 A2979 RMK A01 T02970189  RH  052%=      5-min Rain = 0
KST2 150201Z 18012KT 30/19 A2979 RMK A01 T02970189  RH  052%=      5-min Rain = 0
KST2 150202Z 17011KT 30/19 A2979 RMK A01 T02960189  RH  052%=      5-min Rain = 0
KST2 150203Z 17012KT 30/19 A2979 RMK A01 T02960189  RH  053%=      5-min Rain = 0
KST2 150204Z 17012KT 30/19 A2979 RMK A01 T02960189  RH  053%=      5-min Rain = 0
KST2 150205Z 17012KT 30/19 A2979 RMK A01 T02960189  RH  053%=      5-min Rain = 0
KST2 150206Z 17012KT 30/19 A2979 RMK A01 T02950189  RH  053%=      5-min Rain = 0
KST2 150207Z 17012KT 30/19 A2979 RMK A01 T02950189  RH  053%=      5-min Rain = 0
KST2 150208Z 16012KT 30/19 A2979 RMK A01 T02950189  RH  053%=      5-min Rain = 0
KST2 150209Z 17013KT 29/19 A2979 RMK A01 T02940189  RH  053%=      5-min Rain = 0
KST2 150210Z 17012KT 29/19 A2979 RMK A01 T02940188  RH  053%=      5-min Rain = 0
KST2 150211Z 17012KT 29/19 A2979 RMK A01 T02940188  RH  053%=      5-min Rain = 0
KST2 150212Z 17010KT 29/19 A2979 RMK A01 T02940188  RH  053%=      5-min Rain = 0
KST2 150213Z 17011KT 29/19 A2979 RMK A01 T02930188  RH  053%=      5-min Rain = 0
KST2 150214Z 17011KT 29/19 A2979 RMK A01 T02930188  RH  053%=      5-min Rain = 0
KST2 150215Z 17012KT 29/19 A2979 RMK A01 T02930188  RH  053%=      5-min Rain = 0
KST2 150216Z 17012KT 29/19 A2979 RMK A01 T02930188  RH  053%=      5-min Rain = 0
KST2 150217Z 17014KT 29/19 A2979 RMK A01 T02930188  RH  053%=      5-min Rain = 0
KST2 150218Z 17012KT 29/19 A2979 RMK A01 T02930188  RH  053%=      5-min Rain = 0
KST2 150219Z 17013KT 29/19 A2979 RMK A01 T02930189  RH  053%=      5-min Rain = 0
KST2 150220Z 18014KT 29/19 A2979 RMK A01 T02930189  RH  053%=      5-min Rain = 0
KST2 150221Z 17014KT 29/19 A2979 RMK A01 T02940189  RH  053%=      5-min Rain = 0
KST2 150222Z 17013KT 29/19 A2979 RMK A01 T02930188  RH  053%=      5-min Rain = 0
KST2 150223Z 17012KT 29/19 A2979 RMK A01 T02940189  RH  053%=      5-min Rain = 0
KST2 150224Z 17012KT 29/19 A2979 RMK A01 T02940189  RH  053%=      5-min Rain = 0
KST2 150225Z 18013KT 29/19 A298 RMK A01 T02940189  RH  053%=      5-min Rain = 0
KST2 150226Z 17012KT 29/19 A298 RMK A01 T02940189  RH  053%=      5-min Rain = 0
KST2 150227Z 17012KT 29/19 A298 RMK A01 T02940189  RH  053%=      5-min Rain = 0
KST2 150228Z 17012KT 29/19 A298 RMK A01 T02940189  RH  053%=      5-min Rain = 0
KST2 150229Z 18010KT 29/19 A298 RMK A01 T02940189  RH  053%=      5-min Rain = 0
KST2 150230Z 17012KT 29/19 A298 RMK A01 T02930189  RH  053%=      5-min Rain = 0
KST2 150231Z 17012KT 29/19 A298 RMK A01 T02930189  RH  053%=      5-min Rain = 0
KST2 150232Z 17013KT 29/19 A298 RMK A01 T02930189  RH  053%=      5-min Rain = 0
KST2 150233Z 17015KT 29/19 A298 RMK A01 T02930188  RH  053%=      5-min Rain = 0
KST2 150234Z 17014KT 29/19 A298 RMK A01 T02930188  RH  053%=      5-min Rain = 0
KST2 150235Z 17012KT 29/19 A298 RMK A01 T02930188  RH  053%=      5-min Rain = 0
KST2 150236Z 18011KT 29/19 A298 RMK A01 T02930188  RH  053%=      5-min Rain = 0
KST2 150237Z 17011KT 29/19 A298 RMK A01 T02930188  RH  053%=      5-min Rain = 0
KST2 150238Z 18011KT 29/19 A298 RMK A01 T02930188  RH  053%=      5-min Rain = 0
KST2 150239Z 18012KT 29/19 A298 RMK A01 T02930188  RH  053%=      5-min Rain = 0
KST2 150240Z 17012KT 29/19 A298 RMK A01 T02930188  RH  053%=      5-min Rain = 0
KST2 150241Z 18011KT 29/19 A298 RMK A01 T02930188  RH  053%=      5-min Rain = 0
KST2 150242Z 18011KT 29/19 A298 RMK A01 T02930188  RH  053%=      5-min Rain = 0
KST2 150243Z 18011KT 29/19 A298 RMK A01 T02920188  RH  053%=      5-min Rain = 0
KST2 150244Z 17011KT 29/19 A298 RMK A01 T02920188  RH  053%=      5-min Rain = 0
KST2 150245Z 17011KT 29/19 A298 RMK A01 T02920188  RH  054%=      5-min Rain = 0
KST2 150246Z 17013KT 29/19 A298 RMK A01 T02920188  RH  054%=      5-min Rain = 0
KST2 150247Z 17012KT 29/19 A298 RMK A01 T02910187  RH  054%=      5-min Rain = 0
KST2 150248Z 17011KT 29/19 A298 RMK A01 T02910188  RH  054%=      5-min Rain = 0
KST2 150249Z 18014KT 29/19 A298 RMK A01 T02910187  RH  054%=      5-min Rain = 0
KST2 150250Z 17011KT 29/19 A298 RMK A01 T02910187  RH  054%=      5-min Rain = 0
KST2 150251Z 17012KT 29/19 A298 RMK A01 T02910188  RH  054%=      5-min Rain = 0
KST2 150252Z 17013KT 29/19 A298 RMK A01 T02900187  RH  054%=      5-min Rain = 0
KST2 150253Z 17012KT 29/19 A298 RMK A01 T02900187  RH  054%=      5-min Rain = 0
KST2 150254Z 17012KT 29/19 A298 RMK A01 T02900187  RH  054%=      5-min Rain = 0
KST2 150255Z 17013KT 29/19 A298 RMK A01 T02890187  RH  054%=      5-min Rain = 0
KST2 150256Z 17013KT 29/19 A298 RMK A01 T02890187  RH  054%=      5-min Rain = 0
KST2 150257Z 17014KT 29/19 A298 RMK A01 T02890187  RH  054%=      5-min Rain = 0
KST2 150258Z 17015KT 29/19 A298 RMK A01 T02890187  RH  054%=      5-min Rain = 0
KST2 150259Z 17013KT 29/19 A298 RMK A01 T02900187  RH  054%=      5-min Rain = 0
KST2 150300Z 17011KT 29/19 A2981 RMK A01 T02890187  RH  054%=      5-min Rain = 0
KST2 150301Z 17013G18KT 29/19 A2981 RMK A01 T02900187  RH  054%=      5-min Rain = 0
KST2 150302Z 17015KT 29/19 A2981 RMK A01 T02900187  RH  054%=      5-min Rain = 0
KST2 150303Z 17015KT 29/19 A298 RMK A01 T02900187  RH  054%=      5-min Rain = 0
KST2 150304Z 18013KT 29/19 A2981 RMK A01 T02890186  RH  054%=      5-min Rain = 0
KST2 150305Z 18012KT 29/19 A2981 RMK A01 T02890186  RH  054%=      5-min Rain = 0
KST2 150306Z 17013KT 29/19 A2981 RMK A01 T02890186  RH  054%=      5-min Rain = 0
KST2 150307Z 17014KT 29/19 A2981 RMK A01 T02890186  RH  054%=      5-min Rain = 0
KST2 150308Z 17014KT 29/19 A2981 RMK A01 T02890186  RH  054%=      5-min Rain = 0
KST2 150309Z 17013KT 29/19 A2981 RMK A01 T02890186  RH  054%=      5-min Rain = 0
KST2 150310Z 17012KT 29/19 A2981 RMK A01 T02890186  RH  054%=      5-min Rain = 0
KST2 150311Z 17013KT 29/19 A2981 RMK A01 T02890186  RH  054%=      5-min Rain = 0
KST2 150312Z 17013KT 29/19 A298 RMK A01 T02880185  RH  054%=      5-min Rain = 0
KST2 150313Z 17015KT 29/19 A298 RMK A01 T02880185  RH  054%=      5-min Rain = 0
KST2 150314Z 18015KT 29/19 A2981 RMK A01 T02880185  RH  054%=      5-min Rain = 0
KST2 150315Z 18014KT 29/19 A2981 RMK A01 T02880185  RH  054%=      5-min Rain = 0
KST2 150316Z 17012KT 29/19 A2981 RMK A01 T02880185  RH  054%=      5-min Rain = 0
KST2 150317Z 17014KT 29/19 A2981 RMK A01 T02890185  RH  053%=      5-min Rain = 0
KST2 150318Z 17014KT 29/19 A2981 RMK A01 T02880185  RH  053%=      5-min Rain = 0
KST2 150319Z 17013KT 29/18 A2981 RMK A01 T02880184  RH  053%=      5-min Rain = 0
KST2 150320Z 17014KT 29/18 A298 RMK A01 T02880184  RH  053%=      5-min Rain = 0
KST2 150321Z 17015KT 29/18 A298 RMK A01 T02880184  RH  053%=      5-min Rain = 0
KST2 150322Z 17014KT 29/18 A298 RMK A01 T02880184  RH  053%=      5-min Rain = 0
KST2 150323Z 18014G19KT 29/18 A298 RMK A01 T02880184  RH  053%=      5-min Rain = 0
KST2 150324Z 18014KT 29/18 A2981 RMK A01 T02880184  RH  053%=      5-min Rain = 0
KST2 150325Z 18013KT 29/18 A2981 RMK A01 T02880183  RH  053%=      5-min Rain = 0
KST2 150326Z 18014KT 29/18 A2981 RMK A01 T02870183  RH  053%=      5-min Rain = 0
KST2 150327Z 18014KT 29/18 A2981 RMK A01 T02870183  RH  053%=      5-min Rain = 0
KST2 150328Z 18012KT 29/18 A2981 RMK A01 T02870183  RH  053%=      5-min Rain = 0
KST2 150329Z 18014KT 29/18 A2981 RMK A01 T02870183  RH  053%=      5-min Rain = 0
KST2 150330Z 18014KT 29/18 A2981 RMK A01 T02860182  RH  053%=      5-min Rain = 0
KST2 150331Z 18015KT 29/18 A2981 RMK A01 T02870183  RH  053%=      5-min Rain = 0
KST2 150332Z 18015KT 29/18 A2981 RMK A01 T02860182  RH  053%=      5-min Rain = 0
KST2 150333Z 18015KT 29/18 A2981 RMK A01 T02860182  RH  053%=      5-min Rain = 0
KST2 150334Z 18014KT 29/18 A2981 RMK A01 T02860182  RH  053%=      5-min Rain = 0
KST2 150335Z 17013KT 29/18 A2981 RMK A01 T02850182  RH  053%=      5-min Rain = 0
KST2 150336Z 18014KT 29/18 A2981 RMK A01 T02850181  RH  053%=      5-min Rain = 0
KST2 150337Z 18014KT 29/18 A2981 RMK A01 T02850181  RH  053%=      5-min Rain = 0
KST2 150338Z 18014KT 29/18 A2981 RMK A01 T02850181  RH  053%=      5-min Rain = 0
KST2 150339Z 18012KT 28/18 A2981 RMK A01 T02840181  RH  053%=      5-min Rain = 0
KST2 150340Z 18013KT 28/18 A2981 RMK A01 T02840181  RH  054%=      5-min Rain = 0
KST2 150341Z 18013KT 28/18 A2981 RMK A01 T02840180  RH  054%=      5-min Rain = 0
KST2 150342Z 18013KT 28/18 A2981 RMK A01 T02830180  RH  054%=      5-min Rain = 0
KST2 150343Z 17013KT 28/18 A2981 RMK A01 T02830180  RH  054%=      5-min Rain = 0
KST2 150344Z 18013KT 28/18 A2981 RMK A01 T02830180  RH  054%=      5-min Rain = 0
KST2 150345Z 18014KT 28/18 A2981 RMK A01 T02830180  RH  054%=      5-min Rain = 0
KST2 150346Z 18012KT 28/18 A2981 RMK A01 T02820180  RH  054%=      5-min Rain = 0
KST2 150347Z 18011KT 28/18 A2981 RMK A01 T02820180  RH  054%=      5-min Rain = 0
KST2 150348Z 18013KT 28/18 A2982 RMK A01 T02820180  RH  054%=      5-min Rain = 0
KST2 150349Z 18013KT 28/18 A2982 RMK A01 T02820179  RH  054%=      5-min Rain = 0
KST2 150350Z 18011KT 28/18 A2982 RMK A01 T02820180  RH  054%=      5-min Rain = 0
KST2 150351Z 18013KT 28/18 A2982 RMK A01 T02820180  RH  054%=      5-min Rain = 0
KST2 150352Z 18012KT 28/18 A2982 RMK A01 T02820179  RH  054%=      5-min Rain = 0
KST2 150353Z 18012KT 28/18 A2982 RMK A01 T02820179  RH  054%=      5-min Rain = 0
KST2 150354Z 18012KT 28/18 A2983 RMK A01 T02820179  RH  054%=      5-min Rain = 0
KST2 150355Z 18011KT 28/18 A2983 RMK A01 T02820179  RH  054%=      5-min Rain = 0
KST2 150356Z 19011KT 28/18 A2983 RMK A01 T02810179  RH  054%=      5-min Rain = 0
KST2 150357Z 18011KT 28/18 A2983 RMK A01 T02810179  RH  054%=      5-min Rain = 0
KST2 150358Z 19012KT 28/18 A2983 RMK A01 T02810178  RH  054%=      5-min Rain = 0
KST2 150359Z 19012KT 28/18 A2983 RMK A01 T02810178  RH  054%=      5-min Rain = 0
KST2 150400Z 19012KT 28/18 A2983 RMK A01 T02810178  RH  054%=      5-min Rain = 0
KST2 150401Z 19012KT 28/18 A2983 RMK A01 T02810178  RH  054%=      5-min Rain = 0
KST2 150402Z 19012KT 28/18 A2983 RMK A01 T02810178  RH  054%=      5-min Rain = 0
KST2 150403Z 19012KT 28/18 A2983 RMK A01 T02810178  RH  054%=      5-min Rain = 0
KST2 150404Z 19012KT 28/18 A2983 RMK A01 T02810178  RH  054%=      5-min Rain = 0
KST2 150405Z 19011KT 28/18 A2983 RMK A01 T02810178  RH  053%=      5-min Rain = 0
KST2 150406Z 19011KT 28/18 A2983 RMK A01 T02810178  RH  053%=      5-min Rain = 0
KST2 150407Z 19012KT 28/18 A2983 RMK A01 T02810178  RH  053%=      5-min Rain = 0
KST2 150408Z 19012KT 28/18 A2983 RMK A01 T02810178  RH  053%=      5-min Rain = 0
KST2 150409Z 19012KT 28/18 A2983 RMK A01 T02810178  RH  053%=      5-min Rain = 0
KST2 150410Z 19011KT 28/18 A2983 RMK A01 T02810178  RH  053%=      5-min Rain = 0
KST2 150411Z 19013KT 28/18 A2984 RMK A01 T02800177  RH  053%=      5-min Rain = 0
KST2 150412Z 19013KT 28/18 A2983 RMK A01 T02800177  RH  054%=      5-min Rain = 0
KST2 150413Z 19012KT 28/18 A2983 RMK A01 T02800177  RH  053%=      5-min Rain = 0
KST2 150414Z 19013KT 28/18 A2983 RMK A01 T02800177  RH  053%=      5-min Rain = 0
KST2 150415Z 19012KT 28/18 A2983 RMK A01 T02810177  RH  053%=      5-min Rain = 0
KST2 150416Z 19012KT 28/18 A2983 RMK A01 T02800177  RH  053%=      5-min Rain = 0
KST2 150417Z 19013KT 28/18 A2983 RMK A01 T02800177  RH  053%=      5-min Rain = 0
KST2 150418Z 19012KT 28/18 A2983 RMK A01 T02800177  RH  053%=      5-min Rain = 0
KST2 150419Z 19011KT 28/18 A2983 RMK A01 T02800177  RH  054%=      5-min Rain = 0
KST2 150420Z 19011KT 28/18 A2983 RMK A01 T02790177  RH  054%=      5-min Rain = 0
KST2 150421Z 19013KT 28/18 A2983 RMK A01 T02790177  RH  054%=      5-min Rain = 0
KST2 150422Z 19013KT 28/18 A2983 RMK A01 T02790176  RH  054%=      5-min Rain = 0
KST2 150423Z 18011KT 28/18 A2983 RMK A01 T02790177  RH  054%=      5-min Rain = 0
KST2 150424Z 19011KT 28/18 A2983 RMK A01 T02790176  RH  054%=      5-min Rain = 0
KST2 150425Z 19010KT 28/18 A2983 RMK A01 T02780176  RH  054%=      5-min Rain = 0
KST2 150426Z 18012KT 28/18 A2983 RMK A01 T02780177  RH  054%=      5-min Rain = 0
KST2 150427Z 19012KT 28/18 A2983 RMK A01 T02780176  RH  054%=      5-min Rain = 0
KST2 150428Z 19011KT 28/18 A2983 RMK A01 T02780176  RH  054%=      5-min Rain = 0
KST2 150429Z 18011KT 28/18 A2983 RMK A01 T02780176  RH  054%=      5-min Rain = 0
KST2 150430Z 18011KT 28/18 A2983 RMK A01 T02770176  RH  054%=      5-min Rain = 0
KST2 150431Z 18011KT 28/18 A2983 RMK A01 T02770176  RH  054%=      5-min Rain = 0
KST2 150432Z 18012KT 28/18 A2983 RMK A01 T02770176  RH  054%=      5-min Rain = 0
KST2 150433Z 18012KT 28/18 A2983 RMK A01 T02770176  RH  054%=      5-min Rain = 0
KST2 150434Z 18012KT 28/18 A2983 RMK A01 T02770176  RH  054%=      5-min Rain = 0
KST2 150435Z 18011KT 28/18 A2983 RMK A01 T02760176  RH  054%=      5-min Rain = 0
KST2 150436Z 18013KT 28/18 A2982 RMK A01 T02760176  RH  054%=      5-min Rain = 0
KST2 150437Z 18013KT 28/18 A2982 RMK A01 T02760176  RH  054%=      5-min Rain = 0
KST2 150438Z 18012KT 28/18 A2982 RMK A01 T02760176  RH  054%=      5-min Rain = 0
KST2 150439Z 18013KT 28/18 A2982 RMK A01 T02760176  RH  055%=      5-min Rain = 0
KST2 150440Z 18012KT 28/18 A2982 RMK A01 T02750176  RH  055%=      5-min Rain = 0
KST2 150441Z 18013KT 28/18 A2982 RMK A01 T02750176  RH  055%=      5-min Rain = 0
KST2 150442Z 18013KT 28/18 A2982 RMK A01 T02750176  RH  055%=      5-min Rain = 0
KST2 150443Z 18013KT 28/18 A2982 RMK A01 T02750176  RH  055%=      5-min Rain = 0
KST2 150444Z 18012KT 28/18 A2982 RMK A01 T02750176  RH  055%=      5-min Rain = 0
KST2 150445Z 19012KT 28/18 A2982 RMK A01 T02750176  RH  055%=      5-min Rain = 0
KST2 150446Z 18013KT 28/18 A2982 RMK A01 T02750176  RH  055%=      5-min Rain = 0
KST2 150447Z 18012KT 28/18 A2982 RMK A01 T02750176  RH  055%=      5-min Rain = 0
KST2 150448Z 19012KT 28/18 A2982 RMK A01 T02750176  RH  055%=      5-min Rain = 0
KST2 150449Z 18013KT 28/18 A2982 RMK A01 T02750176  RH  055%=      5-min Rain = 0
KST2 150450Z 18012KT 28/18 A2982 RMK A01 T02750176  RH  055%=      5-min Rain = 0
KST2 150451Z 18013KT 27/18 A2982 RMK A01 T02740176  RH  055%=      5-min Rain = 0
KST2 150452Z 18014KT 27/18 A2982 RMK A01 T02740176  RH  055%=      5-min Rain = 0
KST2 150453Z 18014KT 27/18 A2981 RMK A01 T02740176  RH  055%=      5-min Rain = 0
KST2 150454Z 18014KT 27/18 A2981 RMK A01 T02740176  RH  055%=      5-min Rain = 0
KST2 150455Z 18014KT 27/18 A2981 RMK A01 T02740176  RH  055%=      5-min Rain = 0
KST2 150456Z 18014KT 27/18 A2981 RMK A01 T02740176  RH  055%=      5-min Rain = 0
KST2 150457Z 18014KT 27/18 A2981 RMK A01 T02740176  RH  055%=      5-min Rain = 0
KST2 150458Z 18015KT 27/18 A2981 RMK A01 T02740176  RH  055%=      5-min Rain = 0
KST2 150459Z 18013KT 27/18 A2981 RMK A01 T02740176  RH  055%=      5-min Rain = 0

Page generated in 0.135 seconds.